<?xml version="1.0" encoding="UTF-8" standalone="no" ?>
<gpx xmlns="http://www.topografix.com/GPX/1/1" xmlns:xsi="http://www.w3.org/2001/XMLSchema-instance" xsi:schemaLocation="http://www.topografix.com/GPX/1/1 http://www.topografix.com/GPX/1/1/gpx.xsd" version="1.1" creator="VisuGPX - https://www.visugpx.com">
  <metadata>
    <name>2022-02-13 07:56:13</name>
    <desc><![CDATA[
<p>Heure de départ: 07:56 13 févr. 2022<br/>Heure d'arrivée: 13:03 13 févr. 2022<br/>Distance: 15,1 km (05:07)<br/>Temps déplacement: 02:59<br/>Vitesse moyenne: 2,94 km/h<br/>Vitesse moyenne mouv.: 5,04 km/h<br/>Vitesse Max.: 28,26 km/h<br/>Altitude minimale: 1394 m<br/>Altitude maximale: 2463 m<br/>Vitesse de montée: 630,5 m/h<br/>Vitesse de descente: 1891,4 m/h<br/>Gain d'altitude: 1072 m<br/>Petrk d'altitude: 1057 m<br/>Temps de montée: 01:42<br/>Temps de descente: 00:33<br/></p><hr align="center" width="480" style="height: 2px; width: 517px"/>]]></desc>
  </metadata>
  <trk>
    <name><![CDATA[2022-02-13 07:56:13]]></name>
    <desc><![CDATA[<p>Heure de départ: 07:56 13 févr. 2022<br/>Heure d'arrivée: 13:03 13 févr. 2022<br/>Distance: 15,1 km (05:07)<br/>Temps déplacement: 02:59<br/>Vitesse moyenne: 2,94 km/h<br/>Vitesse moyenne mouv.: 5,04 km/h<br/>Vitesse Max.: 28,26 km/h<br/>Altitude minimale: 1394 m<br/>Altitude maximale: 2463 m<br/>Vitesse de montée: 630,5 m/h<br/>Vitesse de descente: 1891,4 m/h<br/>Gain d'altitude: 1072 m<br/>Petrk d'altitude: 1057 m<br/>Temps de montée: 01:42<br/>Temps de descente: 00:33<br/></p><hr align="center" width="480" style="height: 2px; width: 517px"/>]]></desc>
    <trkseg>
      <trkpt lat="45.57813" lon="6.65225">
        <ele>1391.5</ele>
        <time>2022-02-13T06:56:15.999Z</time>
      </trkpt>
      <trkpt lat="45.57831" lon="6.65225">
        <ele>1390.16</ele>
        <time>2022-02-13T06:57:26.999Z</time>
      </trkpt>
      <trkpt lat="45.57849" lon="6.6523">
        <ele>1390.59</ele>
        <time>2022-02-13T06:57:41.999Z</time>
      </trkpt>
      <trkpt lat="45.57867" lon="6.65233">
        <ele>1391.39</ele>
        <time>2022-02-13T06:59:32.999Z</time>
      </trkpt>
      <trkpt lat="45.57885" lon="6.6524">
        <ele>1392.38</ele>
        <time>2022-02-13T07:00:15.999Z</time>
      </trkpt>
      <trkpt lat="45.57902" lon="6.65246">
        <ele>1393.78</ele>
        <time>2022-02-13T07:00:35.999Z</time>
      </trkpt>
      <trkpt lat="45.57921" lon="6.65249">
        <ele>1395.28</ele>
        <time>2022-02-13T07:00:54.999Z</time>
      </trkpt>
      <trkpt lat="45.57939" lon="6.65251">
        <ele>1396.29</ele>
        <time>2022-02-13T07:01:13.999Z</time>
      </trkpt>
      <trkpt lat="45.57958" lon="6.65252">
        <ele>1398.7</ele>
        <time>2022-02-13T07:01:35.999Z</time>
      </trkpt>
      <trkpt lat="45.57977" lon="6.65252">
        <ele>1400.15</ele>
        <time>2022-02-13T07:01:56.999Z</time>
      </trkpt>
      <trkpt lat="45.57995" lon="6.65254">
        <ele>1403.65</ele>
        <time>2022-02-13T07:02:17.999Z</time>
      </trkpt>
      <trkpt lat="45.58013" lon="6.65254">
        <ele>1406.4</ele>
        <time>2022-02-13T07:02:54.999Z</time>
      </trkpt>
      <trkpt lat="45.58031" lon="6.65246">
        <ele>1407.65</ele>
        <time>2022-02-13T07:03:14.999Z</time>
      </trkpt>
      <trkpt lat="45.58049" lon="6.6524">
        <ele>1410.09</ele>
        <time>2022-02-13T07:03:32.999Z</time>
      </trkpt>
      <trkpt lat="45.58067" lon="6.65234">
        <ele>1412.02</ele>
        <time>2022-02-13T07:04:15.999Z</time>
      </trkpt>
      <trkpt lat="45.58083" lon="6.65222">
        <ele>1413.63</ele>
        <time>2022-02-13T07:04:37.999Z</time>
      </trkpt>
      <trkpt lat="45.581" lon="6.65213">
        <ele>1415.61</ele>
        <time>2022-02-13T07:04:54.999Z</time>
      </trkpt>
      <trkpt lat="45.58115" lon="6.65199">
        <ele>1419.06</ele>
        <time>2022-02-13T07:05:16.999Z</time>
      </trkpt>
      <trkpt lat="45.58132" lon="6.65188">
        <ele>1422.42</ele>
        <time>2022-02-13T07:05:36.999Z</time>
      </trkpt>
      <trkpt lat="45.58149" lon="6.65177">
        <ele>1426.49</ele>
        <time>2022-02-13T07:05:57.999Z</time>
      </trkpt>
      <trkpt lat="45.58166" lon="6.65168">
        <ele>1428.96</ele>
        <time>2022-02-13T07:06:23.999Z</time>
      </trkpt>
      <trkpt lat="45.58184" lon="6.65162">
        <ele>1433.6</ele>
        <time>2022-02-13T07:06:49.999Z</time>
      </trkpt>
      <trkpt lat="45.58202" lon="6.65153">
        <ele>1437.11</ele>
        <time>2022-02-13T07:07:15.999Z</time>
      </trkpt>
      <trkpt lat="45.58221" lon="6.65148">
        <ele>1440.04</ele>
        <time>2022-02-13T07:07:38.999Z</time>
      </trkpt>
      <trkpt lat="45.58239" lon="6.6515">
        <ele>1442.16</ele>
        <time>2022-02-13T07:07:58.999Z</time>
      </trkpt>
      <trkpt lat="45.58257" lon="6.65153">
        <ele>1446.21</ele>
        <time>2022-02-13T07:08:19.999Z</time>
      </trkpt>
      <trkpt lat="45.58275" lon="6.65153">
        <ele>1447.85</ele>
        <time>2022-02-13T07:08:42.999Z</time>
      </trkpt>
      <trkpt lat="45.58293" lon="6.65152">
        <ele>1451.76</ele>
        <time>2022-02-13T07:09:03.999Z</time>
      </trkpt>
      <trkpt lat="45.58312" lon="6.65154">
        <ele>1454.86</ele>
        <time>2022-02-13T07:09:29.999Z</time>
      </trkpt>
      <trkpt lat="45.58331" lon="6.65157">
        <ele>1458.37</ele>
        <time>2022-02-13T07:09:51.999Z</time>
      </trkpt>
      <trkpt lat="45.58349" lon="6.65161">
        <ele>1461.39</ele>
        <time>2022-02-13T07:10:14.999Z</time>
      </trkpt>
      <trkpt lat="45.58368" lon="6.65163">
        <ele>1465.21</ele>
        <time>2022-02-13T07:10:44.999Z</time>
      </trkpt>
      <trkpt lat="45.58387" lon="6.65167">
        <ele>1469.24</ele>
        <time>2022-02-13T07:11:06.999Z</time>
      </trkpt>
      <trkpt lat="45.58405" lon="6.65173">
        <ele>1472.82</ele>
        <time>2022-02-13T07:11:29.999Z</time>
      </trkpt>
      <trkpt lat="45.58423" lon="6.65178">
        <ele>1476.37</ele>
        <time>2022-02-13T07:11:55.999Z</time>
      </trkpt>
      <trkpt lat="45.58441" lon="6.65182">
        <ele>1479.7</ele>
        <time>2022-02-13T07:12:19.999Z</time>
      </trkpt>
      <trkpt lat="45.58459" lon="6.65177">
        <ele>1482.76</ele>
        <time>2022-02-13T07:12:41.999Z</time>
      </trkpt>
      <trkpt lat="45.58477" lon="6.65171">
        <ele>1486.54</ele>
        <time>2022-02-13T07:13:03.999Z</time>
      </trkpt>
      <trkpt lat="45.58495" lon="6.65163">
        <ele>1489.93</ele>
        <time>2022-02-13T07:13:28.999Z</time>
      </trkpt>
      <trkpt lat="45.58512" lon="6.65154">
        <ele>1492.9</ele>
        <time>2022-02-13T07:13:49.999Z</time>
      </trkpt>
      <trkpt lat="45.58529" lon="6.65143">
        <ele>1495.84</ele>
        <time>2022-02-13T07:14:13.999Z</time>
      </trkpt>
      <trkpt lat="45.58544" lon="6.65129">
        <ele>1498.92</ele>
        <time>2022-02-13T07:14:34.999Z</time>
      </trkpt>
      <trkpt lat="45.5856" lon="6.65115">
        <ele>1502.06</ele>
        <time>2022-02-13T07:15:08.999Z</time>
      </trkpt>
      <trkpt lat="45.58575" lon="6.65101">
        <ele>1505.82</ele>
        <time>2022-02-13T07:15:27.999Z</time>
      </trkpt>
      <trkpt lat="45.58591" lon="6.65089">
        <ele>1508.92</ele>
        <time>2022-02-13T07:15:49.999Z</time>
      </trkpt>
      <trkpt lat="45.58607" lon="6.65074">
        <ele>1511.88</ele>
        <time>2022-02-13T07:16:15.999Z</time>
      </trkpt>
      <trkpt lat="45.58622" lon="6.65061">
        <ele>1515.05</ele>
        <time>2022-02-13T07:16:36.999Z</time>
      </trkpt>
      <trkpt lat="45.58639" lon="6.6505">
        <ele>1518.65</ele>
        <time>2022-02-13T07:17:00.999Z</time>
      </trkpt>
      <trkpt lat="45.58655" lon="6.65037">
        <ele>1521.24</ele>
        <time>2022-02-13T07:17:19.999Z</time>
      </trkpt>
      <trkpt lat="45.58668" lon="6.65018">
        <ele>1525.08</ele>
        <time>2022-02-13T07:17:42.999Z</time>
      </trkpt>
      <trkpt lat="45.5868" lon="6.64998">
        <ele>1528.54</ele>
        <time>2022-02-13T07:18:07.999Z</time>
      </trkpt>
      <trkpt lat="45.58694" lon="6.64981">
        <ele>1531.53</ele>
        <time>2022-02-13T07:18:29.999Z</time>
      </trkpt>
      <trkpt lat="45.58706" lon="6.64961">
        <ele>1534.89</ele>
        <time>2022-02-13T07:18:52.999Z</time>
      </trkpt>
      <trkpt lat="45.5872" lon="6.64944">
        <ele>1538.03</ele>
        <time>2022-02-13T07:19:18.999Z</time>
      </trkpt>
      <trkpt lat="45.58732" lon="6.64923">
        <ele>1541.21</ele>
        <time>2022-02-13T07:19:40.999Z</time>
      </trkpt>
      <trkpt lat="45.5874" lon="6.649">
        <ele>1543.71</ele>
        <time>2022-02-13T07:20:01.999Z</time>
      </trkpt>
      <trkpt lat="45.58748" lon="6.64877">
        <ele>1547.12</ele>
        <time>2022-02-13T07:20:23.999Z</time>
      </trkpt>
      <trkpt lat="45.58758" lon="6.64855">
        <ele>1550.85</ele>
        <time>2022-02-13T07:20:55.999Z</time>
      </trkpt>
      <trkpt lat="45.58772" lon="6.64839">
        <ele>1554.27</ele>
        <time>2022-02-13T07:21:21.999Z</time>
      </trkpt>
      <trkpt lat="45.58783" lon="6.64818">
        <ele>1558.29</ele>
        <time>2022-02-13T07:21:45.999Z</time>
      </trkpt>
      <trkpt lat="45.58794" lon="6.64798">
        <ele>1561.84</ele>
        <time>2022-02-13T07:22:09.999Z</time>
      </trkpt>
      <trkpt lat="45.58802" lon="6.64774">
        <ele>1564.56</ele>
        <time>2022-02-13T07:22:32.999Z</time>
      </trkpt>
      <trkpt lat="45.58815" lon="6.64753">
        <ele>1567.33</ele>
        <time>2022-02-13T07:22:57.999Z</time>
      </trkpt>
      <trkpt lat="45.58833" lon="6.64756">
        <ele>1569.39</ele>
        <time>2022-02-13T07:23:20.999Z</time>
      </trkpt>
      <trkpt lat="45.5885" lon="6.64766">
        <ele>1572.97</ele>
        <time>2022-02-13T07:23:46.999Z</time>
      </trkpt>
      <trkpt lat="45.58867" lon="6.64775">
        <ele>1577.01</ele>
        <time>2022-02-13T07:24:12.999Z</time>
      </trkpt>
      <trkpt lat="45.58885" lon="6.6478">
        <ele>1579.72</ele>
        <time>2022-02-13T07:24:39.999Z</time>
      </trkpt>
      <trkpt lat="45.58899" lon="6.64762">
        <ele>1581.99</ele>
        <time>2022-02-13T07:25:07.999Z</time>
      </trkpt>
      <trkpt lat="45.58905" lon="6.64737">
        <ele>1582.89</ele>
        <time>2022-02-13T07:25:52.999Z</time>
      </trkpt>
      <trkpt lat="45.5892" lon="6.64724">
        <ele>1584.73</ele>
        <time>2022-02-13T07:26:15.999Z</time>
      </trkpt>
      <trkpt lat="45.58939" lon="6.64724">
        <ele>1585.46</ele>
        <time>2022-02-13T07:27:11.999Z</time>
      </trkpt>
      <trkpt lat="45.58958" lon="6.64717">
        <ele>1586.07</ele>
        <time>2022-02-13T07:27:27.999Z</time>
      </trkpt>
      <trkpt lat="45.58977" lon="6.64716">
        <ele>1586.58</ele>
        <time>2022-02-13T07:27:45.999Z</time>
      </trkpt>
      <trkpt lat="45.58995" lon="6.6471">
        <ele>1588.4</ele>
        <time>2022-02-13T07:28:02.999Z</time>
      </trkpt>
      <trkpt lat="45.59008" lon="6.6469">
        <ele>1589.73</ele>
        <time>2022-02-13T07:28:17.999Z</time>
      </trkpt>
      <trkpt lat="45.5902" lon="6.64668">
        <ele>1591.06</ele>
        <time>2022-02-13T07:28:33.999Z</time>
      </trkpt>
      <trkpt lat="45.59034" lon="6.6465">
        <ele>1591.63</ele>
        <time>2022-02-13T07:28:52.999Z</time>
      </trkpt>
      <trkpt lat="45.59051" lon="6.64638">
        <ele>1593.1</ele>
        <time>2022-02-13T07:29:09.999Z</time>
      </trkpt>
      <trkpt lat="45.59068" lon="6.64631">
        <ele>1594.79</ele>
        <time>2022-02-13T07:29:26.999Z</time>
      </trkpt>
      <trkpt lat="45.59084" lon="6.64617">
        <ele>1596.19</ele>
        <time>2022-02-13T07:29:41.999Z</time>
      </trkpt>
      <trkpt lat="45.59094" lon="6.64596">
        <ele>1595.97</ele>
        <time>2022-02-13T07:29:57.999Z</time>
      </trkpt>
      <trkpt lat="45.59108" lon="6.6458">
        <ele>1596.8</ele>
        <time>2022-02-13T07:30:11.999Z</time>
      </trkpt>
      <trkpt lat="45.59123" lon="6.64564">
        <ele>1596.16</ele>
        <time>2022-02-13T07:30:26.999Z</time>
      </trkpt>
      <trkpt lat="45.59137" lon="6.64547">
        <ele>1597.02</ele>
        <time>2022-02-13T07:30:42.999Z</time>
      </trkpt>
      <trkpt lat="45.59152" lon="6.6453">
        <ele>1597.89</ele>
        <time>2022-02-13T07:30:57.999Z</time>
      </trkpt>
      <trkpt lat="45.59168" lon="6.64519">
        <ele>1598.03</ele>
        <time>2022-02-13T07:31:16.999Z</time>
      </trkpt>
      <trkpt lat="45.59185" lon="6.64505">
        <ele>1600.17</ele>
        <time>2022-02-13T07:31:36.999Z</time>
      </trkpt>
      <trkpt lat="45.59201" lon="6.64494">
        <ele>1602.03</ele>
        <time>2022-02-13T07:31:55.999Z</time>
      </trkpt>
      <trkpt lat="45.59217" lon="6.64478">
        <ele>1602.72</ele>
        <time>2022-02-13T07:32:12.999Z</time>
      </trkpt>
      <trkpt lat="45.59232" lon="6.64464">
        <ele>1603.4</ele>
        <time>2022-02-13T07:32:30.999Z</time>
      </trkpt>
      <trkpt lat="45.59245" lon="6.64445">
        <ele>1604.3</ele>
        <time>2022-02-13T07:32:47.999Z</time>
      </trkpt>
      <trkpt lat="45.59259" lon="6.64427">
        <ele>1604.85</ele>
        <time>2022-02-13T07:33:02.999Z</time>
      </trkpt>
      <trkpt lat="45.59272" lon="6.64408">
        <ele>1604.13</ele>
        <time>2022-02-13T07:33:17.999Z</time>
      </trkpt>
      <trkpt lat="45.59287" lon="6.6439">
        <ele>1603.89</ele>
        <time>2022-02-13T07:33:33.999Z</time>
      </trkpt>
      <trkpt lat="45.59298" lon="6.64369">
        <ele>1604.49</ele>
        <time>2022-02-13T07:33:50.999Z</time>
      </trkpt>
      <trkpt lat="45.5931" lon="6.64348">
        <ele>1604.43</ele>
        <time>2022-02-13T07:34:10.999Z</time>
      </trkpt>
      <trkpt lat="45.59326" lon="6.64333">
        <ele>1604.03</ele>
        <time>2022-02-13T07:34:25.999Z</time>
      </trkpt>
      <trkpt lat="45.59344" lon="6.64331">
        <ele>1603.59</ele>
        <time>2022-02-13T07:34:37.999Z</time>
      </trkpt>
      <trkpt lat="45.59362" lon="6.64327">
        <ele>1603.18</ele>
        <time>2022-02-13T07:34:53.999Z</time>
      </trkpt>
      <trkpt lat="45.59381" lon="6.64321">
        <ele>1602.94</ele>
        <time>2022-02-13T07:35:09.999Z</time>
      </trkpt>
      <trkpt lat="45.59399" lon="6.64317">
        <ele>1602.92</ele>
        <time>2022-02-13T07:35:26.999Z</time>
      </trkpt>
      <trkpt lat="45.59417" lon="6.64309">
        <ele>1603.49</ele>
        <time>2022-02-13T07:35:42.999Z</time>
      </trkpt>
      <trkpt lat="45.59432" lon="6.64295">
        <ele>1604.01</ele>
        <time>2022-02-13T07:35:58.999Z</time>
      </trkpt>
      <trkpt lat="45.59451" lon="6.6429">
        <ele>1605.66</ele>
        <time>2022-02-13T07:36:21.999Z</time>
      </trkpt>
      <trkpt lat="45.59469" lon="6.64286">
        <ele>1607.34</ele>
        <time>2022-02-13T07:36:41.999Z</time>
      </trkpt>
      <trkpt lat="45.59487" lon="6.6428">
        <ele>1608.43</ele>
        <time>2022-02-13T07:37:02.999Z</time>
      </trkpt>
      <trkpt lat="45.59504" lon="6.6427">
        <ele>1608.84</ele>
        <time>2022-02-13T07:37:56.999Z</time>
      </trkpt>
      <trkpt lat="45.59522" lon="6.64262">
        <ele>1609.13</ele>
        <time>2022-02-13T07:38:12.999Z</time>
      </trkpt>
      <trkpt lat="45.59538" lon="6.64252">
        <ele>1609.7</ele>
        <time>2022-02-13T07:38:27.999Z</time>
      </trkpt>
      <trkpt lat="45.59553" lon="6.64235">
        <ele>1611</ele>
        <time>2022-02-13T07:38:40.999Z</time>
      </trkpt>
      <trkpt lat="45.59561" lon="6.64212">
        <ele>1611.7</ele>
        <time>2022-02-13T07:38:53.999Z</time>
      </trkpt>
      <trkpt lat="45.59572" lon="6.6419">
        <ele>1610.97</ele>
        <time>2022-02-13T07:39:08.999Z</time>
      </trkpt>
      <trkpt lat="45.59585" lon="6.64169">
        <ele>1610.45</ele>
        <time>2022-02-13T07:39:23.999Z</time>
      </trkpt>
      <trkpt lat="45.596" lon="6.64152">
        <ele>1611.19</ele>
        <time>2022-02-13T07:39:40.999Z</time>
      </trkpt>
      <trkpt lat="45.59617" lon="6.64146">
        <ele>1614.47</ele>
        <time>2022-02-13T07:40:15.999Z</time>
      </trkpt>
      <trkpt lat="45.59635" lon="6.64139">
        <ele>1615.43</ele>
        <time>2022-02-13T07:40:30.999Z</time>
      </trkpt>
      <trkpt lat="45.59651" lon="6.64126">
        <ele>1616.22</ele>
        <time>2022-02-13T07:40:43.999Z</time>
      </trkpt>
      <trkpt lat="45.59667" lon="6.64114">
        <ele>1617.15</ele>
        <time>2022-02-13T07:40:58.999Z</time>
      </trkpt>
      <trkpt lat="45.59685" lon="6.64104">
        <ele>1617.8</ele>
        <time>2022-02-13T07:41:14.999Z</time>
      </trkpt>
      <trkpt lat="45.59702" lon="6.64092">
        <ele>1617.79</ele>
        <time>2022-02-13T07:41:30.999Z</time>
      </trkpt>
      <trkpt lat="45.59718" lon="6.6408">
        <ele>1618.88</ele>
        <time>2022-02-13T07:41:44.999Z</time>
      </trkpt>
      <trkpt lat="45.59735" lon="6.6407">
        <ele>1619.49</ele>
        <time>2022-02-13T07:41:58.999Z</time>
      </trkpt>
      <trkpt lat="45.59752" lon="6.64059">
        <ele>1619.31</ele>
        <time>2022-02-13T07:42:12.999Z</time>
      </trkpt>
      <trkpt lat="45.59767" lon="6.64043">
        <ele>1617.94</ele>
        <time>2022-02-13T07:42:30.999Z</time>
      </trkpt>
      <trkpt lat="45.59782" lon="6.64028">
        <ele>1620.45</ele>
        <time>2022-02-13T07:42:46.999Z</time>
      </trkpt>
      <trkpt lat="45.59794" lon="6.64008">
        <ele>1623.61</ele>
        <time>2022-02-13T07:43:03.999Z</time>
      </trkpt>
      <trkpt lat="45.59805" lon="6.63988">
        <ele>1623.7</ele>
        <time>2022-02-13T07:43:18.999Z</time>
      </trkpt>
      <trkpt lat="45.59818" lon="6.63969">
        <ele>1623.57</ele>
        <time>2022-02-13T07:43:37.999Z</time>
      </trkpt>
      <trkpt lat="45.59833" lon="6.63954">
        <ele>1625.33</ele>
        <time>2022-02-13T07:43:57.999Z</time>
      </trkpt>
      <trkpt lat="45.59848" lon="6.63938">
        <ele>1626.89</ele>
        <time>2022-02-13T07:44:14.999Z</time>
      </trkpt>
      <trkpt lat="45.5986" lon="6.6392">
        <ele>1626.9</ele>
        <time>2022-02-13T07:44:31.999Z</time>
      </trkpt>
      <trkpt lat="45.59875" lon="6.63905">
        <ele>1628.47</ele>
        <time>2022-02-13T07:44:55.999Z</time>
      </trkpt>
      <trkpt lat="45.59888" lon="6.63886">
        <ele>1629.06</ele>
        <time>2022-02-13T07:45:15.999Z</time>
      </trkpt>
      <trkpt lat="45.59899" lon="6.63865">
        <ele>1629.81</ele>
        <time>2022-02-13T07:45:28.999Z</time>
      </trkpt>
      <trkpt lat="45.5991" lon="6.63843">
        <ele>1629.79</ele>
        <time>2022-02-13T07:45:47.999Z</time>
      </trkpt>
      <trkpt lat="45.59922" lon="6.63824">
        <ele>1630.87</ele>
        <time>2022-02-13T07:46:03.999Z</time>
      </trkpt>
      <trkpt lat="45.59938" lon="6.6381">
        <ele>1632.72</ele>
        <time>2022-02-13T07:46:22.999Z</time>
      </trkpt>
      <trkpt lat="45.59953" lon="6.63796">
        <ele>1632.91</ele>
        <time>2022-02-13T07:46:38.999Z</time>
      </trkpt>
      <trkpt lat="45.59969" lon="6.63781">
        <ele>1633.31</ele>
        <time>2022-02-13T07:46:55.999Z</time>
      </trkpt>
      <trkpt lat="45.59984" lon="6.63765">
        <ele>1634.88</ele>
        <time>2022-02-13T07:47:13.999Z</time>
      </trkpt>
      <trkpt lat="45.59998" lon="6.63749">
        <ele>1635.07</ele>
        <time>2022-02-13T07:47:31.999Z</time>
      </trkpt>
      <trkpt lat="45.60013" lon="6.63733">
        <ele>1636.26</ele>
        <time>2022-02-13T07:47:50.999Z</time>
      </trkpt>
      <trkpt lat="45.60027" lon="6.63717">
        <ele>1637.69</ele>
        <time>2022-02-13T07:48:08.999Z</time>
      </trkpt>
      <trkpt lat="45.60043" lon="6.63703">
        <ele>1639.58</ele>
        <time>2022-02-13T07:48:28.999Z</time>
      </trkpt>
      <trkpt lat="45.60061" lon="6.63695">
        <ele>1639.77</ele>
        <time>2022-02-13T07:48:46.999Z</time>
      </trkpt>
      <trkpt lat="45.60077" lon="6.63681">
        <ele>1639.84</ele>
        <time>2022-02-13T07:49:02.999Z</time>
      </trkpt>
      <trkpt lat="45.6009" lon="6.63661">
        <ele>1642.3</ele>
        <time>2022-02-13T07:49:18.999Z</time>
      </trkpt>
      <trkpt lat="45.60099" lon="6.63639">
        <ele>1640.64</ele>
        <time>2022-02-13T07:49:34.999Z</time>
      </trkpt>
      <trkpt lat="45.60108" lon="6.63616">
        <ele>1640.66</ele>
        <time>2022-02-13T07:49:51.999Z</time>
      </trkpt>
      <trkpt lat="45.60119" lon="6.63594">
        <ele>1641.59</ele>
        <time>2022-02-13T07:50:10.999Z</time>
      </trkpt>
      <trkpt lat="45.60131" lon="6.63573">
        <ele>1642.97</ele>
        <time>2022-02-13T07:50:28.999Z</time>
      </trkpt>
      <trkpt lat="45.60148" lon="6.63563">
        <ele>1644.57</ele>
        <time>2022-02-13T07:50:49.999Z</time>
      </trkpt>
      <trkpt lat="45.60164" lon="6.63551">
        <ele>1644.02</ele>
        <time>2022-02-13T07:51:10.999Z</time>
      </trkpt>
      <trkpt lat="45.6018" lon="6.63538">
        <ele>1646.81</ele>
        <time>2022-02-13T07:51:31.999Z</time>
      </trkpt>
      <trkpt lat="45.60197" lon="6.63524">
        <ele>1649.03</ele>
        <time>2022-02-13T07:51:51.999Z</time>
      </trkpt>
      <trkpt lat="45.60211" lon="6.63508">
        <ele>1649.65</ele>
        <time>2022-02-13T07:52:10.999Z</time>
      </trkpt>
      <trkpt lat="45.60224" lon="6.63489">
        <ele>1652.08</ele>
        <time>2022-02-13T07:52:30.999Z</time>
      </trkpt>
      <trkpt lat="45.60233" lon="6.63467">
        <ele>1652.11</ele>
        <time>2022-02-13T07:52:48.999Z</time>
      </trkpt>
      <trkpt lat="45.60243" lon="6.63444">
        <ele>1654.27</ele>
        <time>2022-02-13T07:53:19.999Z</time>
      </trkpt>
      <trkpt lat="45.60252" lon="6.6342">
        <ele>1654.08</ele>
        <time>2022-02-13T07:54:06.999Z</time>
      </trkpt>
      <trkpt lat="45.60261" lon="6.63397">
        <ele>1654.49</ele>
        <time>2022-02-13T07:54:24.999Z</time>
      </trkpt>
      <trkpt lat="45.60272" lon="6.63374">
        <ele>1654.53</ele>
        <time>2022-02-13T07:54:38.999Z</time>
      </trkpt>
      <trkpt lat="45.60282" lon="6.63352">
        <ele>1654.92</ele>
        <time>2022-02-13T07:54:54.999Z</time>
      </trkpt>
      <trkpt lat="45.60293" lon="6.63332">
        <ele>1656.14</ele>
        <time>2022-02-13T07:55:21.999Z</time>
      </trkpt>
      <trkpt lat="45.60304" lon="6.6331">
        <ele>1656.38</ele>
        <time>2022-02-13T07:55:41.999Z</time>
      </trkpt>
      <trkpt lat="45.60315" lon="6.63286">
        <ele>1657.34</ele>
        <time>2022-02-13T07:55:57.999Z</time>
      </trkpt>
      <trkpt lat="45.60324" lon="6.63263">
        <ele>1658.29</ele>
        <time>2022-02-13T07:56:16.999Z</time>
      </trkpt>
      <trkpt lat="45.60336" lon="6.63242">
        <ele>1660.96</ele>
        <time>2022-02-13T08:01:41.999Z</time>
      </trkpt>
      <trkpt lat="45.60345" lon="6.63219">
        <ele>1662.24</ele>
        <time>2022-02-13T08:02:01.999Z</time>
      </trkpt>
      <trkpt lat="45.60358" lon="6.632">
        <ele>1663.32</ele>
        <time>2022-02-13T08:02:23.999Z</time>
      </trkpt>
      <trkpt lat="45.60372" lon="6.63184">
        <ele>1665.72</ele>
        <time>2022-02-13T08:02:45.999Z</time>
      </trkpt>
      <trkpt lat="45.60385" lon="6.63166">
        <ele>1667.37</ele>
        <time>2022-02-13T08:03:06.999Z</time>
      </trkpt>
      <trkpt lat="45.60398" lon="6.63147">
        <ele>1669.15</ele>
        <time>2022-02-13T08:03:31.999Z</time>
      </trkpt>
      <trkpt lat="45.60412" lon="6.63129">
        <ele>1674.09</ele>
        <time>2022-02-13T08:03:58.999Z</time>
      </trkpt>
      <trkpt lat="45.60423" lon="6.63107">
        <ele>1677.49</ele>
        <time>2022-02-13T08:04:23.999Z</time>
      </trkpt>
      <trkpt lat="45.60435" lon="6.63087">
        <ele>1680.25</ele>
        <time>2022-02-13T08:04:46.999Z</time>
      </trkpt>
      <trkpt lat="45.60447" lon="6.63066">
        <ele>1682.8</ele>
        <time>2022-02-13T08:05:08.999Z</time>
      </trkpt>
      <trkpt lat="45.60457" lon="6.63043">
        <ele>1684.97</ele>
        <time>2022-02-13T08:05:33.999Z</time>
      </trkpt>
      <trkpt lat="45.60469" lon="6.63024">
        <ele>1688.41</ele>
        <time>2022-02-13T08:05:55.999Z</time>
      </trkpt>
      <trkpt lat="45.60482" lon="6.63006">
        <ele>1690.69</ele>
        <time>2022-02-13T08:06:16.999Z</time>
      </trkpt>
      <trkpt lat="45.60496" lon="6.62989">
        <ele>1692.07</ele>
        <time>2022-02-13T08:06:40.999Z</time>
      </trkpt>
      <trkpt lat="45.6051" lon="6.62973">
        <ele>1693.21</ele>
        <time>2022-02-13T08:07:03.999Z</time>
      </trkpt>
      <trkpt lat="45.60524" lon="6.62955">
        <ele>1695.55</ele>
        <time>2022-02-13T08:07:23.999Z</time>
      </trkpt>
      <trkpt lat="45.60539" lon="6.62939">
        <ele>1698.89</ele>
        <time>2022-02-13T08:07:46.999Z</time>
      </trkpt>
      <trkpt lat="45.60552" lon="6.6292">
        <ele>1700.41</ele>
        <time>2022-02-13T08:08:10.999Z</time>
      </trkpt>
      <trkpt lat="45.60562" lon="6.62898">
        <ele>1704.76</ele>
        <time>2022-02-13T08:09:03.999Z</time>
      </trkpt>
      <trkpt lat="45.60576" lon="6.62883">
        <ele>1705.66</ele>
        <time>2022-02-13T08:09:21.999Z</time>
      </trkpt>
      <trkpt lat="45.60593" lon="6.6287">
        <ele>1706.88</ele>
        <time>2022-02-13T08:09:41.999Z</time>
      </trkpt>
      <trkpt lat="45.60609" lon="6.6286">
        <ele>1709.75</ele>
        <time>2022-02-13T08:10:00.999Z</time>
      </trkpt>
      <trkpt lat="45.60627" lon="6.62848">
        <ele>1713.2</ele>
        <time>2022-02-13T08:10:23.999Z</time>
      </trkpt>
      <trkpt lat="45.6064" lon="6.62829">
        <ele>1715.65</ele>
        <time>2022-02-13T08:10:42.999Z</time>
      </trkpt>
      <trkpt lat="45.60646" lon="6.62805">
        <ele>1718.64</ele>
        <time>2022-02-13T08:11:07.999Z</time>
      </trkpt>
      <trkpt lat="45.60652" lon="6.62779">
        <ele>1724.39</ele>
        <time>2022-02-13T08:11:36.999Z</time>
      </trkpt>
      <trkpt lat="45.6066" lon="6.62755">
        <ele>1727.08</ele>
        <time>2022-02-13T08:12:03.999Z</time>
      </trkpt>
      <trkpt lat="45.60671" lon="6.62734">
        <ele>1730.73</ele>
        <time>2022-02-13T08:12:28.999Z</time>
      </trkpt>
      <trkpt lat="45.60683" lon="6.62715">
        <ele>1732.22</ele>
        <time>2022-02-13T08:12:51.999Z</time>
      </trkpt>
      <trkpt lat="45.60695" lon="6.62695">
        <ele>1734.96</ele>
        <time>2022-02-13T08:13:15.999Z</time>
      </trkpt>
      <trkpt lat="45.60709" lon="6.62677">
        <ele>1740.03</ele>
        <time>2022-02-13T08:13:41.999Z</time>
      </trkpt>
      <trkpt lat="45.60724" lon="6.62664">
        <ele>1741.71</ele>
        <time>2022-02-13T08:14:04.999Z</time>
      </trkpt>
      <trkpt lat="45.60739" lon="6.62647">
        <ele>1742.92</ele>
        <time>2022-02-13T08:14:27.999Z</time>
      </trkpt>
      <trkpt lat="45.60754" lon="6.62632">
        <ele>1745.91</ele>
        <time>2022-02-13T08:14:49.999Z</time>
      </trkpt>
      <trkpt lat="45.6077" lon="6.62617">
        <ele>1747.12</ele>
        <time>2022-02-13T08:15:11.999Z</time>
      </trkpt>
      <trkpt lat="45.60782" lon="6.62597">
        <ele>1748.99</ele>
        <time>2022-02-13T08:15:32.999Z</time>
      </trkpt>
      <trkpt lat="45.6079" lon="6.62574">
        <ele>1751.12</ele>
        <time>2022-02-13T08:17:33.999Z</time>
      </trkpt>
      <trkpt lat="45.60803" lon="6.62557">
        <ele>1754.35</ele>
        <time>2022-02-13T08:17:56.999Z</time>
      </trkpt>
      <trkpt lat="45.60816" lon="6.62538">
        <ele>1756.81</ele>
        <time>2022-02-13T08:18:15.999Z</time>
      </trkpt>
      <trkpt lat="45.60828" lon="6.62519">
        <ele>1758.92</ele>
        <time>2022-02-13T08:18:38.999Z</time>
      </trkpt>
      <trkpt lat="45.60838" lon="6.62496">
        <ele>1762.86</ele>
        <time>2022-02-13T08:19:00.999Z</time>
      </trkpt>
      <trkpt lat="45.60848" lon="6.62475">
        <ele>1764.84</ele>
        <time>2022-02-13T08:19:21.999Z</time>
      </trkpt>
      <trkpt lat="45.60861" lon="6.62456">
        <ele>1768.05</ele>
        <time>2022-02-13T08:19:42.999Z</time>
      </trkpt>
      <trkpt lat="45.60877" lon="6.6244">
        <ele>1771.15</ele>
        <time>2022-02-13T08:20:05.999Z</time>
      </trkpt>
      <trkpt lat="45.60891" lon="6.62425">
        <ele>1773.43</ele>
        <time>2022-02-13T08:20:25.999Z</time>
      </trkpt>
      <trkpt lat="45.60906" lon="6.6241">
        <ele>1774.86</ele>
        <time>2022-02-13T08:20:48.999Z</time>
      </trkpt>
      <trkpt lat="45.6092" lon="6.62392">
        <ele>1776.47</ele>
        <time>2022-02-13T08:21:13.999Z</time>
      </trkpt>
      <trkpt lat="45.60933" lon="6.62375">
        <ele>1777.7</ele>
        <time>2022-02-13T08:21:31.999Z</time>
      </trkpt>
      <trkpt lat="45.60949" lon="6.62361">
        <ele>1780.82</ele>
        <time>2022-02-13T08:21:55.999Z</time>
      </trkpt>
      <trkpt lat="45.60966" lon="6.62353">
        <ele>1782.16</ele>
        <time>2022-02-13T08:22:18.999Z</time>
      </trkpt>
      <trkpt lat="45.60985" lon="6.6235">
        <ele>1785.04</ele>
        <time>2022-02-13T08:22:41.999Z</time>
      </trkpt>
      <trkpt lat="45.61003" lon="6.62343">
        <ele>1788.02</ele>
        <time>2022-02-13T08:23:05.999Z</time>
      </trkpt>
      <trkpt lat="45.61021" lon="6.62337">
        <ele>1787.93</ele>
        <time>2022-02-13T08:23:27.999Z</time>
      </trkpt>
      <trkpt lat="45.6104" lon="6.62338">
        <ele>1788.4</ele>
        <time>2022-02-13T08:23:49.999Z</time>
      </trkpt>
      <trkpt lat="45.61057" lon="6.62328">
        <ele>1791.87</ele>
        <time>2022-02-13T08:24:22.999Z</time>
      </trkpt>
      <trkpt lat="45.61071" lon="6.62311">
        <ele>1794.98</ele>
        <time>2022-02-13T08:24:48.999Z</time>
      </trkpt>
      <trkpt lat="45.6108" lon="6.62289">
        <ele>1798.45</ele>
        <time>2022-02-13T08:25:10.999Z</time>
      </trkpt>
      <trkpt lat="45.61092" lon="6.62269">
        <ele>1800.07</ele>
        <time>2022-02-13T08:25:31.999Z</time>
      </trkpt>
      <trkpt lat="45.61103" lon="6.62248">
        <ele>1802.93</ele>
        <time>2022-02-13T08:25:55.999Z</time>
      </trkpt>
      <trkpt lat="45.61116" lon="6.62229">
        <ele>1804.41</ele>
        <time>2022-02-13T08:26:22.999Z</time>
      </trkpt>
      <trkpt lat="45.6113" lon="6.62212">
        <ele>1807.71</ele>
        <time>2022-02-13T08:26:46.999Z</time>
      </trkpt>
      <trkpt lat="45.61146" lon="6.62199">
        <ele>1811.92</ele>
        <time>2022-02-13T08:27:32.999Z</time>
      </trkpt>
      <trkpt lat="45.61161" lon="6.62182">
        <ele>1815.6</ele>
        <time>2022-02-13T08:27:54.999Z</time>
      </trkpt>
      <trkpt lat="45.61175" lon="6.62166">
        <ele>1818.08</ele>
        <time>2022-02-13T08:28:14.999Z</time>
      </trkpt>
      <trkpt lat="45.6119" lon="6.62151">
        <ele>1820.4</ele>
        <time>2022-02-13T08:28:36.999Z</time>
      </trkpt>
      <trkpt lat="45.61206" lon="6.62137">
        <ele>1822.66</ele>
        <time>2022-02-13T08:29:00.999Z</time>
      </trkpt>
      <trkpt lat="45.61221" lon="6.62121">
        <ele>1824.74</ele>
        <time>2022-02-13T08:29:22.999Z</time>
      </trkpt>
      <trkpt lat="45.61235" lon="6.62105">
        <ele>1825.92</ele>
        <time>2022-02-13T08:29:47.999Z</time>
      </trkpt>
      <trkpt lat="45.61249" lon="6.62088">
        <ele>1830.82</ele>
        <time>2022-02-13T08:30:13.999Z</time>
      </trkpt>
      <trkpt lat="45.61262" lon="6.62071">
        <ele>1831.24</ele>
        <time>2022-02-13T08:30:35.999Z</time>
      </trkpt>
      <trkpt lat="45.61276" lon="6.62054">
        <ele>1836.46</ele>
        <time>2022-02-13T08:31:55.999Z</time>
      </trkpt>
      <trkpt lat="45.61294" lon="6.62047">
        <ele>1839.89</ele>
        <time>2022-02-13T08:32:26.999Z</time>
      </trkpt>
      <trkpt lat="45.61312" lon="6.62039">
        <ele>1843.17</ele>
        <time>2022-02-13T08:32:53.999Z</time>
      </trkpt>
      <trkpt lat="45.61312" lon="6.62013">
        <ele>1848.6</ele>
        <time>2022-02-13T08:33:42.999Z</time>
      </trkpt>
      <trkpt lat="45.61298" lon="6.61997">
        <ele>1852.97</ele>
        <time>2022-02-13T08:34:10.999Z</time>
      </trkpt>
      <trkpt lat="45.61315" lon="6.61989">
        <ele>1860.01</ele>
        <time>2022-02-13T08:35:01.999Z</time>
      </trkpt>
      <trkpt lat="45.61333" lon="6.61993">
        <ele>1862.5</ele>
        <time>2022-02-13T08:35:34.999Z</time>
      </trkpt>
      <trkpt lat="45.61352" lon="6.61993">
        <ele>1867.02</ele>
        <time>2022-02-13T08:36:01.999Z</time>
      </trkpt>
      <trkpt lat="45.61354" lon="6.61968">
        <ele>1873.55</ele>
        <time>2022-02-13T08:37:05.999Z</time>
      </trkpt>
      <trkpt lat="45.61342" lon="6.61949">
        <ele>1878.59</ele>
        <time>2022-02-13T08:37:33.999Z</time>
      </trkpt>
      <trkpt lat="45.61339" lon="6.61924">
        <ele>1888.56</ele>
        <time>2022-02-13T08:39:20.999Z</time>
      </trkpt>
      <trkpt lat="45.61324" lon="6.61908">
        <ele>1891.81</ele>
        <time>2022-02-13T08:39:45.999Z</time>
      </trkpt>
      <trkpt lat="45.61343" lon="6.61907">
        <ele>1897.98</ele>
        <time>2022-02-13T08:40:39.999Z</time>
      </trkpt>
      <trkpt lat="45.6136" lon="6.61915">
        <ele>1901.31</ele>
        <time>2022-02-13T08:41:08.999Z</time>
      </trkpt>
      <trkpt lat="45.61377" lon="6.61906">
        <ele>1903.87</ele>
        <time>2022-02-13T08:41:38.999Z</time>
      </trkpt>
      <trkpt lat="45.61391" lon="6.6189">
        <ele>1909.33</ele>
        <time>2022-02-13T08:42:53.999Z</time>
      </trkpt>
      <trkpt lat="45.61407" lon="6.61877">
        <ele>1912.43</ele>
        <time>2022-02-13T08:43:19.999Z</time>
      </trkpt>
      <trkpt lat="45.61424" lon="6.61867">
        <ele>1918.61</ele>
        <time>2022-02-13T08:43:50.999Z</time>
      </trkpt>
      <trkpt lat="45.61442" lon="6.6186">
        <ele>1924.6</ele>
        <time>2022-02-13T08:44:23.999Z</time>
      </trkpt>
      <trkpt lat="45.61452" lon="6.61839">
        <ele>1936.53</ele>
        <time>2022-02-13T08:45:47.999Z</time>
      </trkpt>
      <trkpt lat="45.61467" lon="6.61852">
        <ele>1942.21</ele>
        <time>2022-02-13T08:46:42.999Z</time>
      </trkpt>
      <trkpt lat="45.61479" lon="6.61872">
        <ele>1947.43</ele>
        <time>2022-02-13T08:47:16.999Z</time>
      </trkpt>
      <trkpt lat="45.6149" lon="6.61893">
        <ele>1952.54</ele>
        <time>2022-02-13T08:47:50.999Z</time>
      </trkpt>
      <trkpt lat="45.61508" lon="6.61888">
        <ele>1953.84</ele>
        <time>2022-02-13T08:48:48.999Z</time>
      </trkpt>
      <trkpt lat="45.61526" lon="6.61894">
        <ele>1951.66</ele>
        <time>2022-02-13T08:49:53.999Z</time>
      </trkpt>
      <trkpt lat="45.61542" lon="6.61909">
        <ele>1949.11</ele>
        <time>2022-02-13T08:50:06.999Z</time>
      </trkpt>
      <trkpt lat="45.6156" lon="6.61904">
        <ele>1949.08</ele>
        <time>2022-02-13T08:51:15.999Z</time>
      </trkpt>
      <trkpt lat="45.61579" lon="6.619">
        <ele>1950.11</ele>
        <time>2022-02-13T08:51:35.999Z</time>
      </trkpt>
      <trkpt lat="45.61597" lon="6.619">
        <ele>1950.85</ele>
        <time>2022-02-13T08:51:54.999Z</time>
      </trkpt>
      <trkpt lat="45.61615" lon="6.61894">
        <ele>1951.36</ele>
        <time>2022-02-13T08:52:12.999Z</time>
      </trkpt>
      <trkpt lat="45.61633" lon="6.61894">
        <ele>1953.33</ele>
        <time>2022-02-13T08:52:41.000Z</time>
      </trkpt>
      <trkpt lat="45.61651" lon="6.6189">
        <ele>1953.74</ele>
        <time>2022-02-13T08:53:00.000Z</time>
      </trkpt>
      <trkpt lat="45.61668" lon="6.61883">
        <ele>1955.13</ele>
        <time>2022-02-13T08:53:20.000Z</time>
      </trkpt>
      <trkpt lat="45.61686" lon="6.61879">
        <ele>1956.15</ele>
        <time>2022-02-13T08:53:42.000Z</time>
      </trkpt>
      <trkpt lat="45.61704" lon="6.61873">
        <ele>1959.16</ele>
        <time>2022-02-13T08:54:47.000Z</time>
      </trkpt>
      <trkpt lat="45.61722" lon="6.61866">
        <ele>1959</ele>
        <time>2022-02-13T08:55:08.000Z</time>
      </trkpt>
      <trkpt lat="45.6174" lon="6.6186">
        <ele>1960.72</ele>
        <time>2022-02-13T08:55:31.000Z</time>
      </trkpt>
      <trkpt lat="45.61758" lon="6.61853">
        <ele>1966.04</ele>
        <time>2022-02-13T08:56:18.000Z</time>
      </trkpt>
      <trkpt lat="45.61776" lon="6.61848">
        <ele>1967.43</ele>
        <time>2022-02-13T08:56:43.000Z</time>
      </trkpt>
      <trkpt lat="45.61794" lon="6.61852">
        <ele>1972.21</ele>
        <time>2022-02-13T08:57:22.000Z</time>
      </trkpt>
      <trkpt lat="45.61812" lon="6.61857">
        <ele>1974.17</ele>
        <time>2022-02-13T08:58:01.000Z</time>
      </trkpt>
      <trkpt lat="45.6183" lon="6.61851">
        <ele>1976.96</ele>
        <time>2022-02-13T08:58:30.000Z</time>
      </trkpt>
      <trkpt lat="45.61848" lon="6.61848">
        <ele>1980.27</ele>
        <time>2022-02-13T08:59:04.000Z</time>
      </trkpt>
      <trkpt lat="45.61866" lon="6.61849">
        <ele>1983.94</ele>
        <time>2022-02-13T08:59:57.000Z</time>
      </trkpt>
      <trkpt lat="45.61879" lon="6.61831">
        <ele>1984.91</ele>
        <time>2022-02-13T09:01:48.000Z</time>
      </trkpt>
      <trkpt lat="45.61897" lon="6.61838">
        <ele>1991.46</ele>
        <time>2022-02-13T09:02:28.000Z</time>
      </trkpt>
      <trkpt lat="45.61914" lon="6.61845">
        <ele>2000.39</ele>
        <time>2022-02-13T09:03:43.000Z</time>
      </trkpt>
      <trkpt lat="45.61932" lon="6.61846">
        <ele>2004.2</ele>
        <time>2022-02-13T09:04:28.000Z</time>
      </trkpt>
      <trkpt lat="45.61947" lon="6.61862">
        <ele>2006.9</ele>
        <time>2022-02-13T09:05:00.000Z</time>
      </trkpt>
      <trkpt lat="45.61963" lon="6.61873">
        <ele>2012.7</ele>
        <time>2022-02-13T09:05:35.000Z</time>
      </trkpt>
      <trkpt lat="45.61981" lon="6.61882">
        <ele>2017.9</ele>
        <time>2022-02-13T09:06:35.000Z</time>
      </trkpt>
      <trkpt lat="45.61999" lon="6.61887">
        <ele>2025.02</ele>
        <time>2022-02-13T09:07:08.000Z</time>
      </trkpt>
      <trkpt lat="45.62017" lon="6.61891">
        <ele>2033.87</ele>
        <time>2022-02-13T09:08:54.000Z</time>
      </trkpt>
      <trkpt lat="45.62029" lon="6.6191">
        <ele>2040.08</ele>
        <time>2022-02-13T09:10:26.000Z</time>
      </trkpt>
      <trkpt lat="45.62047" lon="6.61905">
        <ele>2048.25</ele>
        <time>2022-02-13T09:11:17.000Z</time>
      </trkpt>
      <trkpt lat="45.62065" lon="6.61905">
        <ele>2059.47</ele>
        <time>2022-02-13T09:12:30.000Z</time>
      </trkpt>
      <trkpt lat="45.62078" lon="6.61888">
        <ele>2068.98</ele>
        <time>2022-02-13T09:13:37.000Z</time>
      </trkpt>
      <trkpt lat="45.62095" lon="6.619">
        <ele>2076.41</ele>
        <time>2022-02-13T09:14:33.000Z</time>
      </trkpt>
      <trkpt lat="45.62111" lon="6.61888">
        <ele>2084.94</ele>
        <time>2022-02-13T09:15:33.000Z</time>
      </trkpt>
      <trkpt lat="45.62118" lon="6.61913">
        <ele>2090.49</ele>
        <time>2022-02-13T09:17:58.000Z</time>
      </trkpt>
      <trkpt lat="45.62121" lon="6.61938">
        <ele>2095.79</ele>
        <time>2022-02-13T09:18:28.000Z</time>
      </trkpt>
      <trkpt lat="45.62139" lon="6.61931">
        <ele>2102.18</ele>
        <time>2022-02-13T09:20:02.000Z</time>
      </trkpt>
      <trkpt lat="45.62153" lon="6.61913">
        <ele>2109.1</ele>
        <time>2022-02-13T09:20:50.000Z</time>
      </trkpt>
      <trkpt lat="45.62171" lon="6.61922">
        <ele>2117.7</ele>
        <time>2022-02-13T09:21:44.000Z</time>
      </trkpt>
      <trkpt lat="45.62189" lon="6.61918">
        <ele>2123.6</ele>
        <time>2022-02-13T09:22:25.000Z</time>
      </trkpt>
      <trkpt lat="45.62204" lon="6.61932">
        <ele>2132.79</ele>
        <time>2022-02-13T09:23:41.000Z</time>
      </trkpt>
      <trkpt lat="45.6222" lon="6.6192">
        <ele>2137.89</ele>
        <time>2022-02-13T09:24:17.000Z</time>
      </trkpt>
      <trkpt lat="45.62232" lon="6.6194">
        <ele>2144.18</ele>
        <time>2022-02-13T09:24:52.000Z</time>
      </trkpt>
      <trkpt lat="45.62249" lon="6.61932">
        <ele>2152.84</ele>
        <time>2022-02-13T09:25:42.000Z</time>
      </trkpt>
      <trkpt lat="45.62267" lon="6.61935">
        <ele>2160.21</ele>
        <time>2022-02-13T09:26:30.000Z</time>
      </trkpt>
      <trkpt lat="45.62283" lon="6.61949">
        <ele>2170.18</ele>
        <time>2022-02-13T09:28:21.000Z</time>
      </trkpt>
      <trkpt lat="45.62297" lon="6.61964">
        <ele>2178.5</ele>
        <time>2022-02-13T09:29:30.000Z</time>
      </trkpt>
      <trkpt lat="45.6231" lon="6.61982">
        <ele>2190.58</ele>
        <time>2022-02-13T09:31:27.000Z</time>
      </trkpt>
      <trkpt lat="45.62328" lon="6.61989">
        <ele>2200.78</ele>
        <time>2022-02-13T09:36:37.000Z</time>
      </trkpt>
      <trkpt lat="45.62343" lon="6.61973">
        <ele>2204.94</ele>
        <time>2022-02-13T09:37:18.000Z</time>
      </trkpt>
      <trkpt lat="45.62357" lon="6.61957">
        <ele>2208.47</ele>
        <time>2022-02-13T09:37:56.000Z</time>
      </trkpt>
      <trkpt lat="45.62372" lon="6.61942">
        <ele>2215.33</ele>
        <time>2022-02-13T09:39:34.000Z</time>
      </trkpt>
      <trkpt lat="45.6239" lon="6.61936">
        <ele>2219.97</ele>
        <time>2022-02-13T09:40:05.000Z</time>
      </trkpt>
      <trkpt lat="45.62407" lon="6.61927">
        <ele>2224.34</ele>
        <time>2022-02-13T09:40:50.000Z</time>
      </trkpt>
      <trkpt lat="45.62424" lon="6.61936">
        <ele>2230.94</ele>
        <time>2022-02-13T09:42:16.000Z</time>
      </trkpt>
      <trkpt lat="45.6244" lon="6.61924">
        <ele>2236.5</ele>
        <time>2022-02-13T09:43:32.000Z</time>
      </trkpt>
      <trkpt lat="45.62458" lon="6.61927">
        <ele>2242.85</ele>
        <time>2022-02-13T09:44:15.000Z</time>
      </trkpt>
      <trkpt lat="45.62475" lon="6.61938">
        <ele>2248.29</ele>
        <time>2022-02-13T09:44:53.000Z</time>
      </trkpt>
      <trkpt lat="45.62488" lon="6.61958">
        <ele>2254.41</ele>
        <time>2022-02-13T09:45:59.000Z</time>
      </trkpt>
      <trkpt lat="45.62499" lon="6.61979">
        <ele>2255.92</ele>
        <time>2022-02-13T09:46:25.000Z</time>
      </trkpt>
      <trkpt lat="45.62512" lon="6.61996">
        <ele>2256.69</ele>
        <time>2022-02-13T09:46:47.000Z</time>
      </trkpt>
      <trkpt lat="45.62525" lon="6.62015">
        <ele>2258.97</ele>
        <time>2022-02-13T09:47:14.000Z</time>
      </trkpt>
      <trkpt lat="45.62541" lon="6.62029">
        <ele>2265.04</ele>
        <time>2022-02-13T09:49:53.000Z</time>
      </trkpt>
      <trkpt lat="45.62552" lon="6.62051">
        <ele>2263.78</ele>
        <time>2022-02-13T09:50:17.000Z</time>
      </trkpt>
      <trkpt lat="45.62562" lon="6.62072">
        <ele>2265.02</ele>
        <time>2022-02-13T09:51:22.000Z</time>
      </trkpt>
      <trkpt lat="45.62574" lon="6.62093">
        <ele>2264.84</ele>
        <time>2022-02-13T09:51:42.000Z</time>
      </trkpt>
      <trkpt lat="45.62589" lon="6.62108">
        <ele>2263.87</ele>
        <time>2022-02-13T09:52:02.000Z</time>
      </trkpt>
      <trkpt lat="45.62603" lon="6.62125">
        <ele>2263.19</ele>
        <time>2022-02-13T09:52:23.000Z</time>
      </trkpt>
      <trkpt lat="45.62614" lon="6.62147">
        <ele>2263.7</ele>
        <time>2022-02-13T09:52:45.000Z</time>
      </trkpt>
      <trkpt lat="45.62621" lon="6.62171">
        <ele>2266.31</ele>
        <time>2022-02-13T09:53:16.000Z</time>
      </trkpt>
      <trkpt lat="45.6263" lon="6.62195">
        <ele>2270.95</ele>
        <time>2022-02-13T09:53:56.000Z</time>
      </trkpt>
      <trkpt lat="45.62644" lon="6.62211">
        <ele>2273.32</ele>
        <time>2022-02-13T09:54:23.000Z</time>
      </trkpt>
      <trkpt lat="45.62658" lon="6.62229">
        <ele>2275.16</ele>
        <time>2022-02-13T09:54:50.000Z</time>
      </trkpt>
      <trkpt lat="45.62668" lon="6.6225">
        <ele>2276.78</ele>
        <time>2022-02-13T09:55:24.000Z</time>
      </trkpt>
      <trkpt lat="45.62678" lon="6.62272">
        <ele>2278.71</ele>
        <time>2022-02-13T09:55:59.000Z</time>
      </trkpt>
      <trkpt lat="45.62681" lon="6.62298">
        <ele>2282.43</ele>
        <time>2022-02-13T09:56:38.000Z</time>
      </trkpt>
      <trkpt lat="45.62695" lon="6.62315">
        <ele>2290.52</ele>
        <time>2022-02-13T09:57:54.000Z</time>
      </trkpt>
      <trkpt lat="45.62713" lon="6.62326">
        <ele>2291.92</ele>
        <time>2022-02-13T09:58:21.000Z</time>
      </trkpt>
      <trkpt lat="45.62724" lon="6.62345">
        <ele>2293.06</ele>
        <time>2022-02-13T09:59:04.000Z</time>
      </trkpt>
      <trkpt lat="45.62716" lon="6.62368">
        <ele>2295.94</ele>
        <time>2022-02-13T09:59:36.000Z</time>
      </trkpt>
      <trkpt lat="45.62715" lon="6.62394">
        <ele>2301.73</ele>
        <time>2022-02-13T10:02:53.000Z</time>
      </trkpt>
      <trkpt lat="45.62723" lon="6.62418">
        <ele>2305.73</ele>
        <time>2022-02-13T10:03:53.000Z</time>
      </trkpt>
      <trkpt lat="45.62732" lon="6.6244">
        <ele>2311.97</ele>
        <time>2022-02-13T10:05:10.000Z</time>
      </trkpt>
      <trkpt lat="45.62717" lon="6.62456">
        <ele>2317.52</ele>
        <time>2022-02-13T10:05:59.000Z</time>
      </trkpt>
      <trkpt lat="45.62708" lon="6.62479">
        <ele>2323.55</ele>
        <time>2022-02-13T10:06:53.000Z</time>
      </trkpt>
      <trkpt lat="45.62697" lon="6.62499">
        <ele>2330.26</ele>
        <time>2022-02-13T10:07:49.000Z</time>
      </trkpt>
      <trkpt lat="45.62689" lon="6.62522">
        <ele>2332.83</ele>
        <time>2022-02-13T10:08:24.000Z</time>
      </trkpt>
      <trkpt lat="45.62673" lon="6.62535">
        <ele>2337.66</ele>
        <time>2022-02-13T10:09:11.000Z</time>
      </trkpt>
      <trkpt lat="45.62678" lon="6.6256">
        <ele>2340.16</ele>
        <time>2022-02-13T10:10:01.000Z</time>
      </trkpt>
      <trkpt lat="45.62692" lon="6.62578">
        <ele>2343.38</ele>
        <time>2022-02-13T10:10:29.000Z</time>
      </trkpt>
      <trkpt lat="45.6271" lon="6.62581">
        <ele>2348.29</ele>
        <time>2022-02-13T10:11:04.000Z</time>
      </trkpt>
      <trkpt lat="45.62708" lon="6.62607">
        <ele>2354.55</ele>
        <time>2022-02-13T10:11:56.000Z</time>
      </trkpt>
      <trkpt lat="45.62699" lon="6.62629">
        <ele>2365.62</ele>
        <time>2022-02-13T10:14:33.000Z</time>
      </trkpt>
      <trkpt lat="45.62683" lon="6.62643">
        <ele>2367.26</ele>
        <time>2022-02-13T10:15:21.000Z</time>
      </trkpt>
      <trkpt lat="45.62667" lon="6.62653">
        <ele>2368.16</ele>
        <time>2022-02-13T10:15:47.000Z</time>
      </trkpt>
      <trkpt lat="45.62649" lon="6.62659">
        <ele>2368.47</ele>
        <time>2022-02-13T10:16:13.000Z</time>
      </trkpt>
      <trkpt lat="45.62631" lon="6.62662">
        <ele>2371.57</ele>
        <time>2022-02-13T10:16:48.000Z</time>
      </trkpt>
      <trkpt lat="45.62619" lon="6.62682">
        <ele>2377.47</ele>
        <time>2022-02-13T10:17:49.000Z</time>
      </trkpt>
      <trkpt lat="45.62614" lon="6.62707">
        <ele>2387.78</ele>
        <time>2022-02-13T10:19:51.000Z</time>
      </trkpt>
      <trkpt lat="45.62599" lon="6.62721">
        <ele>2393.49</ele>
        <time>2022-02-13T10:21:07.000Z</time>
      </trkpt>
      <trkpt lat="45.6258" lon="6.62723">
        <ele>2393.59</ele>
        <time>2022-02-13T10:21:30.000Z</time>
      </trkpt>
      <trkpt lat="45.62562" lon="6.62726">
        <ele>2394.1</ele>
        <time>2022-02-13T10:21:47.000Z</time>
      </trkpt>
      <trkpt lat="45.62544" lon="6.62733">
        <ele>2395.33</ele>
        <time>2022-02-13T10:22:14.000Z</time>
      </trkpt>
      <trkpt lat="45.62547" lon="6.62759">
        <ele>2405.74</ele>
        <time>2022-02-13T10:33:59.000Z</time>
      </trkpt>
      <trkpt lat="45.62554" lon="6.62783">
        <ele>2416.44</ele>
        <time>2022-02-13T10:35:37.000Z</time>
      </trkpt>
      <trkpt lat="45.62565" lon="6.62803">
        <ele>2427.32</ele>
        <time>2022-02-13T10:37:08.000Z</time>
      </trkpt>
      <trkpt lat="45.62579" lon="6.6282">
        <ele>2439.62</ele>
        <time>2022-02-13T10:38:48.000Z</time>
      </trkpt>
      <trkpt lat="45.62592" lon="6.62838">
        <ele>2452.35</ele>
        <time>2022-02-13T10:40:33.000Z</time>
      </trkpt>
      <trkpt lat="45.62604" lon="6.62858">
        <ele>2461.6</ele>
        <time>2022-02-13T10:43:37.000Z</time>
      </trkpt>
      <trkpt lat="45.62618" lon="6.62874">
        <ele>2468.92</ele>
        <time>2022-02-13T10:44:54.000Z</time>
      </trkpt>
      <trkpt lat="45.6263" lon="6.62895">
        <ele>2473.74</ele>
        <time>2022-02-13T10:46:08.000Z</time>
      </trkpt>
      <trkpt lat="45.62645" lon="6.62909">
        <ele>2477.72</ele>
        <time>2022-02-13T10:47:09.000Z</time>
      </trkpt>
      <trkpt lat="45.62631" lon="6.6289">
        <ele>2476.58</ele>
        <time>2022-02-13T11:08:19.999Z</time>
      </trkpt>
      <trkpt lat="45.62642" lon="6.62868">
        <ele>2469.01</ele>
        <time>2022-02-13T11:13:57.999Z</time>
      </trkpt>
      <trkpt lat="45.62643" lon="6.62842">
        <ele>2451.77</ele>
        <time>2022-02-13T11:14:30.999Z</time>
      </trkpt>
      <trkpt lat="45.62642" lon="6.62815">
        <ele>2442.44</ele>
        <time>2022-02-13T11:14:40.999Z</time>
      </trkpt>
      <trkpt lat="45.62646" lon="6.6279">
        <ele>2429.66</ele>
        <time>2022-02-13T11:14:53.999Z</time>
      </trkpt>
      <trkpt lat="45.62646" lon="6.62761">
        <ele>2420.83</ele>
        <time>2022-02-13T11:15:01.999Z</time>
      </trkpt>
      <trkpt lat="45.6265" lon="6.62733">
        <ele>2407.56</ele>
        <time>2022-02-13T11:16:27.999Z</time>
      </trkpt>
      <trkpt lat="45.6266" lon="6.6271">
        <ele>2395.88</ele>
        <time>2022-02-13T11:16:44.999Z</time>
      </trkpt>
      <trkpt lat="45.62655" lon="6.62682">
        <ele>2387.85</ele>
        <time>2022-02-13T11:16:52.999Z</time>
      </trkpt>
      <trkpt lat="45.62663" lon="6.6266">
        <ele>2378.9</ele>
        <time>2022-02-13T11:17:04.999Z</time>
      </trkpt>
      <trkpt lat="45.62678" lon="6.6264">
        <ele>2374.63</ele>
        <time>2022-02-13T11:19:02.999Z</time>
      </trkpt>
      <trkpt lat="45.6268" lon="6.62614">
        <ele>2371.79</ele>
        <time>2022-02-13T11:19:08.999Z</time>
      </trkpt>
      <trkpt lat="45.62677" lon="6.62584">
        <ele>2363.31</ele>
        <time>2022-02-13T11:19:16.999Z</time>
      </trkpt>
      <trkpt lat="45.62675" lon="6.62558">
        <ele>2356.43</ele>
        <time>2022-02-13T11:19:23.999Z</time>
      </trkpt>
      <trkpt lat="45.62672" lon="6.62533">
        <ele>2344.86</ele>
        <time>2022-02-13T11:20:14.999Z</time>
      </trkpt>
      <trkpt lat="45.6269" lon="6.62523">
        <ele>2342.73</ele>
        <time>2022-02-13T11:21:24.999Z</time>
      </trkpt>
      <trkpt lat="45.62706" lon="6.62503">
        <ele>2338.76</ele>
        <time>2022-02-13T11:21:32.999Z</time>
      </trkpt>
      <trkpt lat="45.62716" lon="6.62479">
        <ele>2335.14</ele>
        <time>2022-02-13T11:21:38.999Z</time>
      </trkpt>
      <trkpt lat="45.62727" lon="6.62457">
        <ele>2331.03</ele>
        <time>2022-02-13T11:21:45.999Z</time>
      </trkpt>
      <trkpt lat="45.62737" lon="6.62431">
        <ele>2323.53</ele>
        <time>2022-02-13T11:21:52.999Z</time>
      </trkpt>
      <trkpt lat="45.62738" lon="6.62405">
        <ele>2319.4</ele>
        <time>2022-02-13T11:21:57.999Z</time>
      </trkpt>
      <trkpt lat="45.62739" lon="6.62376">
        <ele>2314.22</ele>
        <time>2022-02-13T11:22:02.999Z</time>
      </trkpt>
      <trkpt lat="45.62732" lon="6.62349">
        <ele>2305.46</ele>
        <time>2022-02-13T11:22:10.999Z</time>
      </trkpt>
      <trkpt lat="45.6272" lon="6.62325">
        <ele>2301.22</ele>
        <time>2022-02-13T11:22:15.999Z</time>
      </trkpt>
      <trkpt lat="45.62709" lon="6.62302">
        <ele>2296.98</ele>
        <time>2022-02-13T11:22:22.999Z</time>
      </trkpt>
      <trkpt lat="45.62708" lon="6.62273">
        <ele>2294.19</ele>
        <time>2022-02-13T11:22:26.999Z</time>
      </trkpt>
      <trkpt lat="45.62694" lon="6.62252">
        <ele>2290.24</ele>
        <time>2022-02-13T11:22:31.999Z</time>
      </trkpt>
      <trkpt lat="45.6268" lon="6.62231">
        <ele>2286.76</ele>
        <time>2022-02-13T11:22:37.999Z</time>
      </trkpt>
      <trkpt lat="45.62666" lon="6.62211">
        <ele>2284.57</ele>
        <time>2022-02-13T11:22:42.999Z</time>
      </trkpt>
      <trkpt lat="45.62657" lon="6.62187">
        <ele>2281.32</ele>
        <time>2022-02-13T11:22:49.999Z</time>
      </trkpt>
      <trkpt lat="45.62656" lon="6.62155">
        <ele>2279.23</ele>
        <time>2022-02-13T11:22:54.999Z</time>
      </trkpt>
      <trkpt lat="45.62648" lon="6.62129">
        <ele>2278.11</ele>
        <time>2022-02-13T11:22:57.999Z</time>
      </trkpt>
      <trkpt lat="45.62635" lon="6.62111">
        <ele>2275.12</ele>
        <time>2022-02-13T11:23:00.999Z</time>
      </trkpt>
      <trkpt lat="45.62619" lon="6.62099">
        <ele>2271.5</ele>
        <time>2022-02-13T11:23:03.999Z</time>
      </trkpt>
      <trkpt lat="45.62597" lon="6.62092">
        <ele>2266.89</ele>
        <time>2022-02-13T11:23:07.999Z</time>
      </trkpt>
      <trkpt lat="45.62577" lon="6.62088">
        <ele>2263.57</ele>
        <time>2022-02-13T11:23:12.999Z</time>
      </trkpt>
      <trkpt lat="45.62559" lon="6.62086">
        <ele>2260.37</ele>
        <time>2022-02-13T11:23:21.999Z</time>
      </trkpt>
      <trkpt lat="45.62543" lon="6.62072">
        <ele>2255.79</ele>
        <time>2022-02-13T11:23:27.999Z</time>
      </trkpt>
      <trkpt lat="45.62522" lon="6.62057">
        <ele>2253.84</ele>
        <time>2022-02-13T11:23:31.999Z</time>
      </trkpt>
      <trkpt lat="45.62503" lon="6.62047">
        <ele>2251.49</ele>
        <time>2022-02-13T11:23:36.999Z</time>
      </trkpt>
      <trkpt lat="45.62485" lon="6.6204">
        <ele>2249.05</ele>
        <time>2022-02-13T11:23:41.999Z</time>
      </trkpt>
      <trkpt lat="45.62468" lon="6.62024">
        <ele>2247.28</ele>
        <time>2022-02-13T11:24:50.999Z</time>
      </trkpt>
      <trkpt lat="45.62452" lon="6.62009">
        <ele>2245.2</ele>
        <time>2022-02-13T11:24:55.999Z</time>
      </trkpt>
      <trkpt lat="45.62436" lon="6.61996">
        <ele>2243.03</ele>
        <time>2022-02-13T11:25:00.999Z</time>
      </trkpt>
      <trkpt lat="45.62417" lon="6.61995">
        <ele>2237.59</ele>
        <time>2022-02-13T11:25:13.999Z</time>
      </trkpt>
      <trkpt lat="45.62409" lon="6.6197">
        <ele>2234.45</ele>
        <time>2022-02-13T11:25:19.999Z</time>
      </trkpt>
      <trkpt lat="45.62399" lon="6.61941">
        <ele>2224.14</ele>
        <time>2022-02-13T11:25:49.999Z</time>
      </trkpt>
      <trkpt lat="45.62379" lon="6.61937">
        <ele>2220.1</ele>
        <time>2022-02-13T11:25:53.999Z</time>
      </trkpt>
      <trkpt lat="45.62362" lon="6.61953">
        <ele>2215.85</ele>
        <time>2022-02-13T11:25:58.999Z</time>
      </trkpt>
      <trkpt lat="45.62346" lon="6.61973">
        <ele>2210.72</ele>
        <time>2022-02-13T11:26:04.999Z</time>
      </trkpt>
      <trkpt lat="45.62338" lon="6.61997">
        <ele>2208.13</ele>
        <time>2022-02-13T11:26:11.999Z</time>
      </trkpt>
      <trkpt lat="45.62327" lon="6.61973">
        <ele>2198.36</ele>
        <time>2022-02-13T11:26:42.999Z</time>
      </trkpt>
      <trkpt lat="45.62327" lon="6.61946">
        <ele>2195.6</ele>
        <time>2022-02-13T11:26:48.999Z</time>
      </trkpt>
      <trkpt lat="45.62308" lon="6.61943">
        <ele>2184.2</ele>
        <time>2022-02-13T11:27:07.999Z</time>
      </trkpt>
      <trkpt lat="45.62293" lon="6.61963">
        <ele>2181.13</ele>
        <time>2022-02-13T11:27:14.999Z</time>
      </trkpt>
      <trkpt lat="45.62276" lon="6.61955">
        <ele>2174.37</ele>
        <time>2022-02-13T11:27:24.999Z</time>
      </trkpt>
      <trkpt lat="45.62263" lon="6.61932">
        <ele>2166.34</ele>
        <time>2022-02-13T11:27:36.999Z</time>
      </trkpt>
      <trkpt lat="45.62244" lon="6.61935">
        <ele>2158.14</ele>
        <time>2022-02-13T11:27:45.999Z</time>
      </trkpt>
      <trkpt lat="45.62228" lon="6.61921">
        <ele>2147.08</ele>
        <time>2022-02-13T11:27:54.999Z</time>
      </trkpt>
      <trkpt lat="45.62209" lon="6.61929">
        <ele>2140.17</ele>
        <time>2022-02-13T11:28:01.999Z</time>
      </trkpt>
      <trkpt lat="45.6219" lon="6.61927">
        <ele>2130.19</ele>
        <time>2022-02-13T11:28:24.999Z</time>
      </trkpt>
      <trkpt lat="45.62171" lon="6.61923">
        <ele>2124.17</ele>
        <time>2022-02-13T11:28:33.999Z</time>
      </trkpt>
      <trkpt lat="45.62153" lon="6.61925">
        <ele>2116.63</ele>
        <time>2022-02-13T11:28:41.999Z</time>
      </trkpt>
      <trkpt lat="45.62143" lon="6.61897">
        <ele>2106.07</ele>
        <time>2022-02-13T11:29:09.999Z</time>
      </trkpt>
      <trkpt lat="45.62125" lon="6.61892">
        <ele>2098.66</ele>
        <time>2022-02-13T11:29:18.999Z</time>
      </trkpt>
      <trkpt lat="45.62112" lon="6.61874">
        <ele>2087.54</ele>
        <time>2022-02-13T11:29:30.999Z</time>
      </trkpt>
      <trkpt lat="45.62097" lon="6.61888">
        <ele>2082.37</ele>
        <time>2022-02-13T11:29:38.999Z</time>
      </trkpt>
      <trkpt lat="45.62077" lon="6.61889">
        <ele>2071.4</ele>
        <time>2022-02-13T11:29:53.999Z</time>
      </trkpt>
      <trkpt lat="45.62058" lon="6.61892">
        <ele>2058.65</ele>
        <time>2022-02-13T11:30:36.999Z</time>
      </trkpt>
      <trkpt lat="45.6204" lon="6.61889">
        <ele>2054.17</ele>
        <time>2022-02-13T11:30:44.999Z</time>
      </trkpt>
      <trkpt lat="45.62021" lon="6.61893">
        <ele>2040.64</ele>
        <time>2022-02-13T11:31:14.999Z</time>
      </trkpt>
      <trkpt lat="45.62004" lon="6.61908">
        <ele>2034.18</ele>
        <time>2022-02-13T11:31:21.999Z</time>
      </trkpt>
      <trkpt lat="45.61982" lon="6.61909">
        <ele>2027.44</ele>
        <time>2022-02-13T11:31:30.999Z</time>
      </trkpt>
      <trkpt lat="45.61964" lon="6.6193">
        <ele>2023.12</ele>
        <time>2022-02-13T11:31:34.999Z</time>
      </trkpt>
      <trkpt lat="45.61947" lon="6.61918">
        <ele>2016.38</ele>
        <time>2022-02-13T11:31:42.999Z</time>
      </trkpt>
      <trkpt lat="45.61927" lon="6.61908">
        <ele>2011.33</ele>
        <time>2022-02-13T11:31:48.999Z</time>
      </trkpt>
      <trkpt lat="45.61907" lon="6.61906">
        <ele>2000.32</ele>
        <time>2022-02-13T11:32:00.999Z</time>
      </trkpt>
      <trkpt lat="45.61889" lon="6.61897">
        <ele>1996.63</ele>
        <time>2022-02-13T11:32:05.999Z</time>
      </trkpt>
      <trkpt lat="45.6187" lon="6.61897">
        <ele>1994.2</ele>
        <time>2022-02-13T11:32:19.999Z</time>
      </trkpt>
      <trkpt lat="45.61849" lon="6.61903">
        <ele>1990.66</ele>
        <time>2022-02-13T11:32:25.999Z</time>
      </trkpt>
      <trkpt lat="45.61836" lon="6.61881">
        <ele>1986.8</ele>
        <time>2022-02-13T11:33:13.999Z</time>
      </trkpt>
      <trkpt lat="45.6182" lon="6.61862">
        <ele>1982.03</ele>
        <time>2022-02-13T11:33:17.999Z</time>
      </trkpt>
      <trkpt lat="45.618" lon="6.61853">
        <ele>1977.74</ele>
        <time>2022-02-13T11:33:21.999Z</time>
      </trkpt>
      <trkpt lat="45.61782" lon="6.61844">
        <ele>1974.22</ele>
        <time>2022-02-13T11:33:25.999Z</time>
      </trkpt>
      <trkpt lat="45.61758" lon="6.61844">
        <ele>1970.13</ele>
        <time>2022-02-13T11:33:29.999Z</time>
      </trkpt>
      <trkpt lat="45.61737" lon="6.61852">
        <ele>1966.25</ele>
        <time>2022-02-13T11:33:32.999Z</time>
      </trkpt>
      <trkpt lat="45.61716" lon="6.61859">
        <ele>1963.04</ele>
        <time>2022-02-13T11:33:35.999Z</time>
      </trkpt>
      <trkpt lat="45.61697" lon="6.61866">
        <ele>1960.37</ele>
        <time>2022-02-13T11:33:38.999Z</time>
      </trkpt>
      <trkpt lat="45.61674" lon="6.61873">
        <ele>1958.59</ele>
        <time>2022-02-13T11:33:42.999Z</time>
      </trkpt>
      <trkpt lat="45.61655" lon="6.61879">
        <ele>1956.45</ele>
        <time>2022-02-13T11:33:46.999Z</time>
      </trkpt>
      <trkpt lat="45.61634" lon="6.61883">
        <ele>1954.9</ele>
        <time>2022-02-13T11:33:51.999Z</time>
      </trkpt>
      <trkpt lat="45.61615" lon="6.61886">
        <ele>1953.93</ele>
        <time>2022-02-13T11:33:59.999Z</time>
      </trkpt>
      <trkpt lat="45.61595" lon="6.61891">
        <ele>1953.61</ele>
        <time>2022-02-13T11:34:09.999Z</time>
      </trkpt>
      <trkpt lat="45.61576" lon="6.61894">
        <ele>1952.46</ele>
        <time>2022-02-13T11:34:19.999Z</time>
      </trkpt>
      <trkpt lat="45.61556" lon="6.61896">
        <ele>1950.17</ele>
        <time>2022-02-13T11:34:26.999Z</time>
      </trkpt>
      <trkpt lat="45.61538" lon="6.61899">
        <ele>1948.3</ele>
        <time>2022-02-13T11:34:35.999Z</time>
      </trkpt>
      <trkpt lat="45.6152" lon="6.61894">
        <ele>1950.75</ele>
        <time>2022-02-13T11:35:19.999Z</time>
      </trkpt>
      <trkpt lat="45.61502" lon="6.61891">
        <ele>1952.31</ele>
        <time>2022-02-13T11:35:49.999Z</time>
      </trkpt>
      <trkpt lat="45.61484" lon="6.6189">
        <ele>1955.24</ele>
        <time>2022-02-13T11:36:07.999Z</time>
      </trkpt>
      <trkpt lat="45.61477" lon="6.61865">
        <ele>1949.41</ele>
        <time>2022-02-13T11:36:29.999Z</time>
      </trkpt>
      <trkpt lat="45.61464" lon="6.6184">
        <ele>1947.71</ele>
        <time>2022-02-13T11:36:33.999Z</time>
      </trkpt>
      <trkpt lat="45.61447" lon="6.61831">
        <ele>1946.72</ele>
        <time>2022-02-13T11:36:37.999Z</time>
      </trkpt>
      <trkpt lat="45.61428" lon="6.61831">
        <ele>1945.84</ele>
        <time>2022-02-13T11:36:41.999Z</time>
      </trkpt>
      <trkpt lat="45.61417" lon="6.61858">
        <ele>1931.51</ele>
        <time>2022-02-13T11:37:02.999Z</time>
      </trkpt>
      <trkpt lat="45.61412" lon="6.61884">
        <ele>1923.13</ele>
        <time>2022-02-13T11:37:11.999Z</time>
      </trkpt>
      <trkpt lat="45.61422" lon="6.61906">
        <ele>1918.73</ele>
        <time>2022-02-13T11:37:15.999Z</time>
      </trkpt>
      <trkpt lat="45.61404" lon="6.61905">
        <ele>1912.73</ele>
        <time>2022-02-13T11:37:35.999Z</time>
      </trkpt>
      <trkpt lat="45.61395" lon="6.6193">
        <ele>1902.76</ele>
        <time>2022-02-13T11:37:50.999Z</time>
      </trkpt>
      <trkpt lat="45.61377" lon="6.61945">
        <ele>1895.74</ele>
        <time>2022-02-13T11:38:00.999Z</time>
      </trkpt>
      <trkpt lat="45.61358" lon="6.61952">
        <ele>1891.02</ele>
        <time>2022-02-13T11:38:13.999Z</time>
      </trkpt>
      <trkpt lat="45.61341" lon="6.61962">
        <ele>1881.93</ele>
        <time>2022-02-13T11:38:25.999Z</time>
      </trkpt>
      <trkpt lat="45.61346" lon="6.61989">
        <ele>1877.06</ele>
        <time>2022-02-13T11:38:32.999Z</time>
      </trkpt>
      <trkpt lat="45.6133" lon="6.62003">
        <ele>1868.79</ele>
        <time>2022-02-13T11:38:52.999Z</time>
      </trkpt>
      <trkpt lat="45.61311" lon="6.6201">
        <ele>1861.21</ele>
        <time>2022-02-13T11:39:03.999Z</time>
      </trkpt>
      <trkpt lat="45.61296" lon="6.62024">
        <ele>1857.2</ele>
        <time>2022-02-13T11:39:10.999Z</time>
      </trkpt>
      <trkpt lat="45.61297" lon="6.6205">
        <ele>1852.11</ele>
        <time>2022-02-13T11:39:17.999Z</time>
      </trkpt>
      <trkpt lat="45.61278" lon="6.62059">
        <ele>1846.58</ele>
        <time>2022-02-13T11:39:25.999Z</time>
      </trkpt>
      <trkpt lat="45.61258" lon="6.62072">
        <ele>1843.01</ele>
        <time>2022-02-13T11:39:30.999Z</time>
      </trkpt>
      <trkpt lat="45.61241" lon="6.62087">
        <ele>1840.35</ele>
        <time>2022-02-13T11:39:34.999Z</time>
      </trkpt>
      <trkpt lat="45.61222" lon="6.62108">
        <ele>1837.77</ele>
        <time>2022-02-13T11:39:40.999Z</time>
      </trkpt>
      <trkpt lat="45.61204" lon="6.62124">
        <ele>1834.57</ele>
        <time>2022-02-13T11:39:44.999Z</time>
      </trkpt>
      <trkpt lat="45.61188" lon="6.62136">
        <ele>1832.22</ele>
        <time>2022-02-13T11:39:48.999Z</time>
      </trkpt>
      <trkpt lat="45.61173" lon="6.62151">
        <ele>1829.91</ele>
        <time>2022-02-13T11:39:52.999Z</time>
      </trkpt>
      <trkpt lat="45.61157" lon="6.62167">
        <ele>1827.05</ele>
        <time>2022-02-13T11:39:56.999Z</time>
      </trkpt>
      <trkpt lat="45.61142" lon="6.62184">
        <ele>1824.71</ele>
        <time>2022-02-13T11:40:00.999Z</time>
      </trkpt>
      <trkpt lat="45.61123" lon="6.62204">
        <ele>1822.11</ele>
        <time>2022-02-13T11:40:04.999Z</time>
      </trkpt>
      <trkpt lat="45.61108" lon="6.62221">
        <ele>1818.43</ele>
        <time>2022-02-13T11:40:07.999Z</time>
      </trkpt>
      <trkpt lat="45.61094" lon="6.62244">
        <ele>1815.51</ele>
        <time>2022-02-13T11:40:11.999Z</time>
      </trkpt>
      <trkpt lat="45.61083" lon="6.62265">
        <ele>1812.93</ele>
        <time>2022-02-13T11:40:14.999Z</time>
      </trkpt>
      <trkpt lat="45.61071" lon="6.62292">
        <ele>1809.76</ele>
        <time>2022-02-13T11:40:18.999Z</time>
      </trkpt>
      <trkpt lat="45.61055" lon="6.62306">
        <ele>1806.26</ele>
        <time>2022-02-13T11:40:23.999Z</time>
      </trkpt>
      <trkpt lat="45.61037" lon="6.62315">
        <ele>1803.18</ele>
        <time>2022-02-13T11:40:28.999Z</time>
      </trkpt>
      <trkpt lat="45.6102" lon="6.6232">
        <ele>1801.31</ele>
        <time>2022-02-13T11:40:32.999Z</time>
      </trkpt>
      <trkpt lat="45.60999" lon="6.62332">
        <ele>1799.79</ele>
        <time>2022-02-13T11:40:36.999Z</time>
      </trkpt>
      <trkpt lat="45.60979" lon="6.62337">
        <ele>1797.97</ele>
        <time>2022-02-13T11:40:40.999Z</time>
      </trkpt>
      <trkpt lat="45.60955" lon="6.62345">
        <ele>1794.71</ele>
        <time>2022-02-13T11:40:44.999Z</time>
      </trkpt>
      <trkpt lat="45.60934" lon="6.62352">
        <ele>1792.75</ele>
        <time>2022-02-13T11:40:48.999Z</time>
      </trkpt>
      <trkpt lat="45.60921" lon="6.62371">
        <ele>1790.16</ele>
        <time>2022-02-13T11:40:51.999Z</time>
      </trkpt>
      <trkpt lat="45.6091" lon="6.62392">
        <ele>1787.54</ele>
        <time>2022-02-13T11:40:56.999Z</time>
      </trkpt>
      <trkpt lat="45.60898" lon="6.62413">
        <ele>1785.27</ele>
        <time>2022-02-13T11:41:00.999Z</time>
      </trkpt>
      <trkpt lat="45.60884" lon="6.6243">
        <ele>1782.36</ele>
        <time>2022-02-13T11:41:04.999Z</time>
      </trkpt>
      <trkpt lat="45.60867" lon="6.62444">
        <ele>1779.57</ele>
        <time>2022-02-13T11:41:08.999Z</time>
      </trkpt>
      <trkpt lat="45.60849" lon="6.62464">
        <ele>1777.68</ele>
        <time>2022-02-13T11:41:12.999Z</time>
      </trkpt>
      <trkpt lat="45.60836" lon="6.62489">
        <ele>1774.88</ele>
        <time>2022-02-13T11:41:16.999Z</time>
      </trkpt>
      <trkpt lat="45.60819" lon="6.62513">
        <ele>1771.86</ele>
        <time>2022-02-13T11:41:20.999Z</time>
      </trkpt>
      <trkpt lat="45.60806" lon="6.62532">
        <ele>1769.46</ele>
        <time>2022-02-13T11:41:23.999Z</time>
      </trkpt>
      <trkpt lat="45.60794" lon="6.62551">
        <ele>1767.25</ele>
        <time>2022-02-13T11:41:26.999Z</time>
      </trkpt>
      <trkpt lat="45.60782" lon="6.6257">
        <ele>1764.43</ele>
        <time>2022-02-13T11:41:29.999Z</time>
      </trkpt>
      <trkpt lat="45.60766" lon="6.62593">
        <ele>1760.42</ele>
        <time>2022-02-13T11:41:34.999Z</time>
      </trkpt>
      <trkpt lat="45.60751" lon="6.62617">
        <ele>1757.88</ele>
        <time>2022-02-13T11:41:38.999Z</time>
      </trkpt>
      <trkpt lat="45.60735" lon="6.62639">
        <ele>1755.32</ele>
        <time>2022-02-13T11:41:42.999Z</time>
      </trkpt>
      <trkpt lat="45.60718" lon="6.62657">
        <ele>1751.29</ele>
        <time>2022-02-13T11:41:46.999Z</time>
      </trkpt>
      <trkpt lat="45.60702" lon="6.62671">
        <ele>1749.8</ele>
        <time>2022-02-13T11:41:50.999Z</time>
      </trkpt>
      <trkpt lat="45.60688" lon="6.62689">
        <ele>1747</ele>
        <time>2022-02-13T11:41:54.999Z</time>
      </trkpt>
      <trkpt lat="45.60676" lon="6.62707">
        <ele>1744.11</ele>
        <time>2022-02-13T11:41:57.999Z</time>
      </trkpt>
      <trkpt lat="45.60662" lon="6.62729">
        <ele>1742.16</ele>
        <time>2022-02-13T11:42:01.999Z</time>
      </trkpt>
      <trkpt lat="45.60648" lon="6.62753">
        <ele>1739.31</ele>
        <time>2022-02-13T11:42:06.999Z</time>
      </trkpt>
      <trkpt lat="45.60638" lon="6.62778">
        <ele>1736.95</ele>
        <time>2022-02-13T11:42:10.999Z</time>
      </trkpt>
      <trkpt lat="45.60625" lon="6.62798">
        <ele>1735.37</ele>
        <time>2022-02-13T11:42:15.999Z</time>
      </trkpt>
      <trkpt lat="45.60619" lon="6.62824">
        <ele>1731.08</ele>
        <time>2022-02-13T11:42:23.999Z</time>
      </trkpt>
      <trkpt lat="45.60611" lon="6.62848">
        <ele>1726.51</ele>
        <time>2022-02-13T11:42:31.999Z</time>
      </trkpt>
      <trkpt lat="45.60593" lon="6.62867">
        <ele>1719.58</ele>
        <time>2022-02-13T11:42:38.999Z</time>
      </trkpt>
      <trkpt lat="45.60574" lon="6.62882">
        <ele>1716.44</ele>
        <time>2022-02-13T11:42:42.999Z</time>
      </trkpt>
      <trkpt lat="45.60558" lon="6.62894">
        <ele>1714.08</ele>
        <time>2022-02-13T11:42:47.999Z</time>
      </trkpt>
      <trkpt lat="45.60548" lon="6.62918">
        <ele>1711.95</ele>
        <time>2022-02-13T11:42:53.999Z</time>
      </trkpt>
      <trkpt lat="45.60533" lon="6.62937">
        <ele>1708.77</ele>
        <time>2022-02-13T11:42:57.999Z</time>
      </trkpt>
      <trkpt lat="45.60517" lon="6.62957">
        <ele>1705.89</ele>
        <time>2022-02-13T11:43:01.999Z</time>
      </trkpt>
      <trkpt lat="45.60502" lon="6.62974">
        <ele>1704.67</ele>
        <time>2022-02-13T11:43:05.999Z</time>
      </trkpt>
      <trkpt lat="45.60486" lon="6.6299">
        <ele>1702.75</ele>
        <time>2022-02-13T11:43:09.999Z</time>
      </trkpt>
      <trkpt lat="45.60472" lon="6.63009">
        <ele>1700.69</ele>
        <time>2022-02-13T11:43:13.999Z</time>
      </trkpt>
      <trkpt lat="45.60457" lon="6.63028">
        <ele>1697.76</ele>
        <time>2022-02-13T11:43:17.999Z</time>
      </trkpt>
      <trkpt lat="45.60446" lon="6.63052">
        <ele>1695.21</ele>
        <time>2022-02-13T11:43:20.999Z</time>
      </trkpt>
      <trkpt lat="45.60435" lon="6.63076">
        <ele>1692.86</ele>
        <time>2022-02-13T11:43:23.999Z</time>
      </trkpt>
      <trkpt lat="45.60419" lon="6.631">
        <ele>1690.39</ele>
        <time>2022-02-13T11:43:27.999Z</time>
      </trkpt>
      <trkpt lat="45.60407" lon="6.63124">
        <ele>1688.17</ele>
        <time>2022-02-13T11:43:32.999Z</time>
      </trkpt>
      <trkpt lat="45.60388" lon="6.63137">
        <ele>1685.28</ele>
        <time>2022-02-13T11:43:38.999Z</time>
      </trkpt>
      <trkpt lat="45.6037" lon="6.63151">
        <ele>1683.11</ele>
        <time>2022-02-13T11:43:44.999Z</time>
      </trkpt>
      <trkpt lat="45.60353" lon="6.63168">
        <ele>1680.79</ele>
        <time>2022-02-13T11:43:49.999Z</time>
      </trkpt>
      <trkpt lat="45.60337" lon="6.63186">
        <ele>1678.97</ele>
        <time>2022-02-13T11:43:54.999Z</time>
      </trkpt>
      <trkpt lat="45.60323" lon="6.63209">
        <ele>1677.01</ele>
        <time>2022-02-13T11:43:59.999Z</time>
      </trkpt>
      <trkpt lat="45.6031" lon="6.63231">
        <ele>1674.9</ele>
        <time>2022-02-13T11:44:03.999Z</time>
      </trkpt>
      <trkpt lat="45.60298" lon="6.63258">
        <ele>1672.75</ele>
        <time>2022-02-13T11:44:07.999Z</time>
      </trkpt>
      <trkpt lat="45.60295" lon="6.63286">
        <ele>1670.55</ele>
        <time>2022-02-13T11:44:11.999Z</time>
      </trkpt>
      <trkpt lat="45.6029" lon="6.63316">
        <ele>1668</ele>
        <time>2022-02-13T11:44:15.999Z</time>
      </trkpt>
      <trkpt lat="45.60283" lon="6.63341">
        <ele>1666.29</ele>
        <time>2022-02-13T11:44:19.999Z</time>
      </trkpt>
      <trkpt lat="45.6027" lon="6.6336">
        <ele>1664.68</ele>
        <time>2022-02-13T11:44:27.999Z</time>
      </trkpt>
      <trkpt lat="45.60261" lon="6.63383">
        <ele>1664.09</ele>
        <time>2022-02-13T11:44:45.999Z</time>
      </trkpt>
      <trkpt lat="45.60253" lon="6.63407">
        <ele>1664.39</ele>
        <time>2022-02-13T11:45:00.999Z</time>
      </trkpt>
      <trkpt lat="45.60243" lon="6.63431">
        <ele>1663.71</ele>
        <time>2022-02-13T11:45:11.999Z</time>
      </trkpt>
      <trkpt lat="45.60232" lon="6.63452">
        <ele>1662.7</ele>
        <time>2022-02-13T11:45:20.999Z</time>
      </trkpt>
      <trkpt lat="45.60223" lon="6.63478">
        <ele>1662.22</ele>
        <time>2022-02-13T11:45:29.999Z</time>
      </trkpt>
      <trkpt lat="45.60211" lon="6.63501">
        <ele>1661.41</ele>
        <time>2022-02-13T11:45:38.999Z</time>
      </trkpt>
      <trkpt lat="45.60195" lon="6.6352">
        <ele>1659.83</ele>
        <time>2022-02-13T11:45:44.999Z</time>
      </trkpt>
      <trkpt lat="45.60178" lon="6.63535">
        <ele>1657.95</ele>
        <time>2022-02-13T11:45:51.999Z</time>
      </trkpt>
      <trkpt lat="45.6016" lon="6.63546">
        <ele>1656.78</ele>
        <time>2022-02-13T11:45:56.999Z</time>
      </trkpt>
      <trkpt lat="45.60142" lon="6.63558">
        <ele>1655.46</ele>
        <time>2022-02-13T11:46:00.999Z</time>
      </trkpt>
      <trkpt lat="45.60124" lon="6.63569">
        <ele>1654.04</ele>
        <time>2022-02-13T11:46:04.999Z</time>
      </trkpt>
      <trkpt lat="45.60112" lon="6.6359">
        <ele>1653.16</ele>
        <time>2022-02-13T11:46:08.999Z</time>
      </trkpt>
      <trkpt lat="45.601" lon="6.63611">
        <ele>1652.57</ele>
        <time>2022-02-13T11:46:12.999Z</time>
      </trkpt>
      <trkpt lat="45.60086" lon="6.63632">
        <ele>1652.6</ele>
        <time>2022-02-13T11:46:18.999Z</time>
      </trkpt>
      <trkpt lat="45.60074" lon="6.63654">
        <ele>1652.03</ele>
        <time>2022-02-13T11:46:25.999Z</time>
      </trkpt>
      <trkpt lat="45.6006" lon="6.63673">
        <ele>1651.3</ele>
        <time>2022-02-13T11:46:34.999Z</time>
      </trkpt>
      <trkpt lat="45.60044" lon="6.63686">
        <ele>1651.04</ele>
        <time>2022-02-13T11:46:42.999Z</time>
      </trkpt>
      <trkpt lat="45.60028" lon="6.637">
        <ele>1648.5</ele>
        <time>2022-02-13T11:46:54.999Z</time>
      </trkpt>
      <trkpt lat="45.60012" lon="6.63719">
        <ele>1647.89</ele>
        <time>2022-02-13T11:47:01.999Z</time>
      </trkpt>
      <trkpt lat="45.59996" lon="6.63737">
        <ele>1646.68</ele>
        <time>2022-02-13T11:47:07.999Z</time>
      </trkpt>
      <trkpt lat="45.5998" lon="6.63752">
        <ele>1645.73</ele>
        <time>2022-02-13T11:47:11.999Z</time>
      </trkpt>
      <trkpt lat="45.59964" lon="6.6377">
        <ele>1645.2</ele>
        <time>2022-02-13T11:47:17.999Z</time>
      </trkpt>
      <trkpt lat="45.59949" lon="6.63786">
        <ele>1643.57</ele>
        <time>2022-02-13T11:47:23.999Z</time>
      </trkpt>
      <trkpt lat="45.59932" lon="6.63801">
        <ele>1643.21</ele>
        <time>2022-02-13T11:47:32.999Z</time>
      </trkpt>
      <trkpt lat="45.59915" lon="6.63816">
        <ele>1642.69</ele>
        <time>2022-02-13T11:47:40.999Z</time>
      </trkpt>
      <trkpt lat="45.59901" lon="6.63832">
        <ele>1642.34</ele>
        <time>2022-02-13T11:47:47.999Z</time>
      </trkpt>
      <trkpt lat="45.5989" lon="6.63856">
        <ele>1640.96</ele>
        <time>2022-02-13T11:47:55.999Z</time>
      </trkpt>
      <trkpt lat="45.59879" lon="6.63876">
        <ele>1640.54</ele>
        <time>2022-02-13T11:48:13.999Z</time>
      </trkpt>
      <trkpt lat="45.59866" lon="6.63895">
        <ele>1639.99</ele>
        <time>2022-02-13T11:48:26.999Z</time>
      </trkpt>
      <trkpt lat="45.59852" lon="6.63914">
        <ele>1639.04</ele>
        <time>2022-02-13T11:48:36.999Z</time>
      </trkpt>
      <trkpt lat="45.59836" lon="6.63932">
        <ele>1638.88</ele>
        <time>2022-02-13T11:48:44.999Z</time>
      </trkpt>
      <trkpt lat="45.59821" lon="6.63948">
        <ele>1638.02</ele>
        <time>2022-02-13T11:48:50.999Z</time>
      </trkpt>
      <trkpt lat="45.59806" lon="6.63964">
        <ele>1637.6</ele>
        <time>2022-02-13T11:48:54.999Z</time>
      </trkpt>
      <trkpt lat="45.59793" lon="6.63985">
        <ele>1636.6</ele>
        <time>2022-02-13T11:48:59.999Z</time>
      </trkpt>
      <trkpt lat="45.59782" lon="6.64009">
        <ele>1635.8</ele>
        <time>2022-02-13T11:49:06.999Z</time>
      </trkpt>
      <trkpt lat="45.59768" lon="6.64028">
        <ele>1635.15</ele>
        <time>2022-02-13T11:49:10.999Z</time>
      </trkpt>
      <trkpt lat="45.59752" lon="6.64042">
        <ele>1633.23</ele>
        <time>2022-02-13T11:49:14.999Z</time>
      </trkpt>
      <trkpt lat="45.59734" lon="6.64056">
        <ele>1630.58</ele>
        <time>2022-02-13T11:49:19.999Z</time>
      </trkpt>
      <trkpt lat="45.59716" lon="6.64067">
        <ele>1628.89</ele>
        <time>2022-02-13T11:49:25.999Z</time>
      </trkpt>
      <trkpt lat="45.59698" lon="6.64079">
        <ele>1629.04</ele>
        <time>2022-02-13T11:49:33.999Z</time>
      </trkpt>
      <trkpt lat="45.5968" lon="6.6409">
        <ele>1628.36</ele>
        <time>2022-02-13T11:49:40.999Z</time>
      </trkpt>
      <trkpt lat="45.59661" lon="6.64102">
        <ele>1627.84</ele>
        <time>2022-02-13T11:49:48.999Z</time>
      </trkpt>
      <trkpt lat="45.59645" lon="6.64115">
        <ele>1628.28</ele>
        <time>2022-02-13T11:49:57.999Z</time>
      </trkpt>
      <trkpt lat="45.59628" lon="6.64128">
        <ele>1627.15</ele>
        <time>2022-02-13T11:50:08.999Z</time>
      </trkpt>
      <trkpt lat="45.59608" lon="6.64136">
        <ele>1624.51</ele>
        <time>2022-02-13T11:50:16.999Z</time>
      </trkpt>
      <trkpt lat="45.59588" lon="6.64152">
        <ele>1623.33</ele>
        <time>2022-02-13T11:50:21.999Z</time>
      </trkpt>
      <trkpt lat="45.59573" lon="6.64167">
        <ele>1621.97</ele>
        <time>2022-02-13T11:50:27.999Z</time>
      </trkpt>
      <trkpt lat="45.59563" lon="6.64188">
        <ele>1622.46</ele>
        <time>2022-02-13T11:50:34.999Z</time>
      </trkpt>
      <trkpt lat="45.59553" lon="6.6421">
        <ele>1622.25</ele>
        <time>2022-02-13T11:50:41.999Z</time>
      </trkpt>
      <trkpt lat="45.5954" lon="6.6423">
        <ele>1621.62</ele>
        <time>2022-02-13T11:50:50.999Z</time>
      </trkpt>
      <trkpt lat="45.59525" lon="6.64246">
        <ele>1620.25</ele>
        <time>2022-02-13T11:51:02.999Z</time>
      </trkpt>
      <trkpt lat="45.59506" lon="6.64256">
        <ele>1619.15</ele>
        <time>2022-02-13T11:51:11.999Z</time>
      </trkpt>
      <trkpt lat="45.59489" lon="6.64265">
        <ele>1619.44</ele>
        <time>2022-02-13T11:51:21.999Z</time>
      </trkpt>
      <trkpt lat="45.59471" lon="6.64274">
        <ele>1617.45</ele>
        <time>2022-02-13T11:51:28.999Z</time>
      </trkpt>
      <trkpt lat="45.59451" lon="6.64282">
        <ele>1616.91</ele>
        <time>2022-02-13T11:51:34.999Z</time>
      </trkpt>
      <trkpt lat="45.59429" lon="6.64289">
        <ele>1616.22</ele>
        <time>2022-02-13T11:51:39.999Z</time>
      </trkpt>
      <trkpt lat="45.59413" lon="6.64301">
        <ele>1614.61</ele>
        <time>2022-02-13T11:51:44.999Z</time>
      </trkpt>
      <trkpt lat="45.59396" lon="6.64309">
        <ele>1612.8</ele>
        <time>2022-02-13T11:51:50.999Z</time>
      </trkpt>
      <trkpt lat="45.59376" lon="6.64311">
        <ele>1612.94</ele>
        <time>2022-02-13T11:51:57.999Z</time>
      </trkpt>
      <trkpt lat="45.59357" lon="6.64319">
        <ele>1613.68</ele>
        <time>2022-02-13T11:52:07.999Z</time>
      </trkpt>
      <trkpt lat="45.5934" lon="6.64328">
        <ele>1613.88</ele>
        <time>2022-02-13T11:52:19.999Z</time>
      </trkpt>
      <trkpt lat="45.59322" lon="6.64331">
        <ele>1612.97</ele>
        <time>2022-02-13T11:52:45.999Z</time>
      </trkpt>
      <trkpt lat="45.59308" lon="6.64348">
        <ele>1613.52</ele>
        <time>2022-02-13T11:53:06.999Z</time>
      </trkpt>
      <trkpt lat="45.59292" lon="6.64364">
        <ele>1615.02</ele>
        <time>2022-02-13T11:53:22.999Z</time>
      </trkpt>
      <trkpt lat="45.59277" lon="6.64382">
        <ele>1615.03</ele>
        <time>2022-02-13T11:53:35.999Z</time>
      </trkpt>
      <trkpt lat="45.5927" lon="6.64406">
        <ele>1613.23</ele>
        <time>2022-02-13T11:53:57.999Z</time>
      </trkpt>
      <trkpt lat="45.59256" lon="6.64425">
        <ele>1613.66</ele>
        <time>2022-02-13T11:54:17.999Z</time>
      </trkpt>
      <trkpt lat="45.59242" lon="6.64442">
        <ele>1613.56</ele>
        <time>2022-02-13T11:54:35.999Z</time>
      </trkpt>
      <trkpt lat="45.59226" lon="6.64458">
        <ele>1613.57</ele>
        <time>2022-02-13T11:54:49.999Z</time>
      </trkpt>
      <trkpt lat="45.59212" lon="6.64474">
        <ele>1612.98</ele>
        <time>2022-02-13T11:54:58.999Z</time>
      </trkpt>
      <trkpt lat="45.59196" lon="6.64487">
        <ele>1612.96</ele>
        <time>2022-02-13T11:55:04.999Z</time>
      </trkpt>
      <trkpt lat="45.59175" lon="6.64501">
        <ele>1611.98</ele>
        <time>2022-02-13T11:55:09.999Z</time>
      </trkpt>
      <trkpt lat="45.59155" lon="6.64514">
        <ele>1610.48</ele>
        <time>2022-02-13T11:55:14.999Z</time>
      </trkpt>
      <trkpt lat="45.59137" lon="6.64529">
        <ele>1608.84</ele>
        <time>2022-02-13T11:55:18.999Z</time>
      </trkpt>
      <trkpt lat="45.59121" lon="6.64548">
        <ele>1609.18</ele>
        <time>2022-02-13T11:55:24.999Z</time>
      </trkpt>
      <trkpt lat="45.5911" lon="6.64568">
        <ele>1608.37</ele>
        <time>2022-02-13T11:55:34.999Z</time>
      </trkpt>
      <trkpt lat="45.59097" lon="6.64586">
        <ele>1605.36</ele>
        <time>2022-02-13T11:55:55.999Z</time>
      </trkpt>
      <trkpt lat="45.59085" lon="6.64607">
        <ele>1604.54</ele>
        <time>2022-02-13T11:56:10.999Z</time>
      </trkpt>
      <trkpt lat="45.59069" lon="6.64622">
        <ele>1604.55</ele>
        <time>2022-02-13T11:56:20.999Z</time>
      </trkpt>
      <trkpt lat="45.59051" lon="6.64629">
        <ele>1604.52</ele>
        <time>2022-02-13T11:56:24.999Z</time>
      </trkpt>
      <trkpt lat="45.59035" lon="6.64642">
        <ele>1604.69</ele>
        <time>2022-02-13T11:56:28.999Z</time>
      </trkpt>
      <trkpt lat="45.59018" lon="6.64659">
        <ele>1603.11</ele>
        <time>2022-02-13T11:56:34.999Z</time>
      </trkpt>
      <trkpt lat="45.59007" lon="6.64679">
        <ele>1601.87</ele>
        <time>2022-02-13T11:56:40.999Z</time>
      </trkpt>
      <trkpt lat="45.58995" lon="6.64699">
        <ele>1599.08</ele>
        <time>2022-02-13T11:56:45.999Z</time>
      </trkpt>
      <trkpt lat="45.58978" lon="6.64709">
        <ele>1596.2</ele>
        <time>2022-02-13T11:56:53.999Z</time>
      </trkpt>
      <trkpt lat="45.58957" lon="6.64711">
        <ele>1595.8</ele>
        <time>2022-02-13T11:56:59.999Z</time>
      </trkpt>
      <trkpt lat="45.58937" lon="6.64712">
        <ele>1596.59</ele>
        <time>2022-02-13T11:57:05.999Z</time>
      </trkpt>
      <trkpt lat="45.58919" lon="6.64712">
        <ele>1597.05</ele>
        <time>2022-02-13T11:57:13.999Z</time>
      </trkpt>
      <trkpt lat="45.58901" lon="6.64731">
        <ele>1595.83</ele>
        <time>2022-02-13T11:57:20.999Z</time>
      </trkpt>
      <trkpt lat="45.58894" lon="6.64755">
        <ele>1593.97</ele>
        <time>2022-02-13T11:57:25.999Z</time>
      </trkpt>
      <trkpt lat="45.58881" lon="6.64775">
        <ele>1591.84</ele>
        <time>2022-02-13T11:58:41.999Z</time>
      </trkpt>
      <trkpt lat="45.58863" lon="6.64772">
        <ele>1589.17</ele>
        <time>2022-02-13T11:58:47.999Z</time>
      </trkpt>
      <trkpt lat="45.58845" lon="6.64765">
        <ele>1586.24</ele>
        <time>2022-02-13T11:58:51.999Z</time>
      </trkpt>
      <trkpt lat="45.58825" lon="6.64754">
        <ele>1582.85</ele>
        <time>2022-02-13T11:58:55.999Z</time>
      </trkpt>
      <trkpt lat="45.58806" lon="6.64754">
        <ele>1580.66</ele>
        <time>2022-02-13T11:58:58.999Z</time>
      </trkpt>
      <trkpt lat="45.58795" lon="6.64775">
        <ele>1577.2</ele>
        <time>2022-02-13T11:59:03.999Z</time>
      </trkpt>
      <trkpt lat="45.5879" lon="6.64802">
        <ele>1573.81</ele>
        <time>2022-02-13T11:59:10.999Z</time>
      </trkpt>
      <trkpt lat="45.58777" lon="6.64821">
        <ele>1570.62</ele>
        <time>2022-02-13T11:59:25.999Z</time>
      </trkpt>
      <trkpt lat="45.58762" lon="6.6484">
        <ele>1567.06</ele>
        <time>2022-02-13T11:59:30.999Z</time>
      </trkpt>
      <trkpt lat="45.58747" lon="6.64858">
        <ele>1564.73</ele>
        <time>2022-02-13T11:59:35.999Z</time>
      </trkpt>
      <trkpt lat="45.5874" lon="6.64882">
        <ele>1560.81</ele>
        <time>2022-02-13T11:59:40.999Z</time>
      </trkpt>
      <trkpt lat="45.58732" lon="6.64911">
        <ele>1557.26</ele>
        <time>2022-02-13T11:59:45.999Z</time>
      </trkpt>
      <trkpt lat="45.58722" lon="6.64932">
        <ele>1554.61</ele>
        <time>2022-02-13T11:59:48.999Z</time>
      </trkpt>
      <trkpt lat="45.58704" lon="6.64953">
        <ele>1551.4</ele>
        <time>2022-02-13T11:59:52.999Z</time>
      </trkpt>
      <trkpt lat="45.58688" lon="6.64972">
        <ele>1548.8</ele>
        <time>2022-02-13T11:59:55.999Z</time>
      </trkpt>
      <trkpt lat="45.58671" lon="6.64994">
        <ele>1544.61</ele>
        <time>2022-02-13T11:59:59.999Z</time>
      </trkpt>
      <trkpt lat="45.58658" lon="6.65012">
        <ele>1541.04</ele>
        <time>2022-02-13T12:00:03.999Z</time>
      </trkpt>
      <trkpt lat="45.58642" lon="6.65029">
        <ele>1537.56</ele>
        <time>2022-02-13T12:00:06.999Z</time>
      </trkpt>
      <trkpt lat="45.58624" lon="6.65044">
        <ele>1532.98</ele>
        <time>2022-02-13T12:00:10.999Z</time>
      </trkpt>
      <trkpt lat="45.58607" lon="6.65056">
        <ele>1529.53</ele>
        <time>2022-02-13T12:00:14.999Z</time>
      </trkpt>
      <trkpt lat="45.58588" lon="6.65074">
        <ele>1525.19</ele>
        <time>2022-02-13T12:00:19.999Z</time>
      </trkpt>
      <trkpt lat="45.58571" lon="6.65092">
        <ele>1520.65</ele>
        <time>2022-02-13T12:00:23.999Z</time>
      </trkpt>
      <trkpt lat="45.58554" lon="6.65105">
        <ele>1518.94</ele>
        <time>2022-02-13T12:00:26.999Z</time>
      </trkpt>
      <trkpt lat="45.58535" lon="6.6512">
        <ele>1514.69</ele>
        <time>2022-02-13T12:00:30.999Z</time>
      </trkpt>
      <trkpt lat="45.58517" lon="6.65134">
        <ele>1510.82</ele>
        <time>2022-02-13T12:00:35.999Z</time>
      </trkpt>
      <trkpt lat="45.58498" lon="6.65148">
        <ele>1507</ele>
        <time>2022-02-13T12:00:40.999Z</time>
      </trkpt>
      <trkpt lat="45.58477" lon="6.65155">
        <ele>1503.33</ele>
        <time>2022-02-13T12:00:44.999Z</time>
      </trkpt>
      <trkpt lat="45.58454" lon="6.65164">
        <ele>1499.44</ele>
        <time>2022-02-13T12:00:48.999Z</time>
      </trkpt>
      <trkpt lat="45.58432" lon="6.65166">
        <ele>1495.01</ele>
        <time>2022-02-13T12:00:52.999Z</time>
      </trkpt>
      <trkpt lat="45.5841" lon="6.65165">
        <ele>1490.94</ele>
        <time>2022-02-13T12:00:57.999Z</time>
      </trkpt>
      <trkpt lat="45.58387" lon="6.65159">
        <ele>1486.04</ele>
        <time>2022-02-13T12:01:02.999Z</time>
      </trkpt>
      <trkpt lat="45.58368" lon="6.65154">
        <ele>1483.36</ele>
        <time>2022-02-13T12:01:05.999Z</time>
      </trkpt>
      <trkpt lat="45.58346" lon="6.65151">
        <ele>1478.46</ele>
        <time>2022-02-13T12:01:09.999Z</time>
      </trkpt>
      <trkpt lat="45.58324" lon="6.65146">
        <ele>1474.92</ele>
        <time>2022-02-13T12:01:13.999Z</time>
      </trkpt>
      <trkpt lat="45.58306" lon="6.65148">
        <ele>1471.39</ele>
        <time>2022-02-13T12:01:16.999Z</time>
      </trkpt>
      <trkpt lat="45.58287" lon="6.65147">
        <ele>1468.04</ele>
        <time>2022-02-13T12:01:19.999Z</time>
      </trkpt>
      <trkpt lat="45.58268" lon="6.65148">
        <ele>1464.23</ele>
        <time>2022-02-13T12:01:22.999Z</time>
      </trkpt>
      <trkpt lat="45.58248" lon="6.65149">
        <ele>1461.4</ele>
        <time>2022-02-13T12:01:26.999Z</time>
      </trkpt>
      <trkpt lat="45.58226" lon="6.65146">
        <ele>1456.1</ele>
        <time>2022-02-13T12:01:31.999Z</time>
      </trkpt>
      <trkpt lat="45.58205" lon="6.65146">
        <ele>1453.6</ele>
        <time>2022-02-13T12:01:35.999Z</time>
      </trkpt>
      <trkpt lat="45.58183" lon="6.65151">
        <ele>1449.77</ele>
        <time>2022-02-13T12:01:41.999Z</time>
      </trkpt>
      <trkpt lat="45.58162" lon="6.65161">
        <ele>1445.89</ele>
        <time>2022-02-13T12:01:45.999Z</time>
      </trkpt>
      <trkpt lat="45.58143" lon="6.6517">
        <ele>1441.92</ele>
        <time>2022-02-13T12:01:49.999Z</time>
      </trkpt>
      <trkpt lat="45.58123" lon="6.65183">
        <ele>1438.26</ele>
        <time>2022-02-13T12:01:53.999Z</time>
      </trkpt>
      <trkpt lat="45.58102" lon="6.65199">
        <ele>1434.37</ele>
        <time>2022-02-13T12:01:57.999Z</time>
      </trkpt>
      <trkpt lat="45.58081" lon="6.65212">
        <ele>1430.7</ele>
        <time>2022-02-13T12:02:01.999Z</time>
      </trkpt>
      <trkpt lat="45.58065" lon="6.65227">
        <ele>1426.71</ele>
        <time>2022-02-13T12:02:05.999Z</time>
      </trkpt>
      <trkpt lat="45.58045" lon="6.6524">
        <ele>1423.9</ele>
        <time>2022-02-13T12:02:09.999Z</time>
      </trkpt>
      <trkpt lat="45.58026" lon="6.65248">
        <ele>1421.37</ele>
        <time>2022-02-13T12:02:13.999Z</time>
      </trkpt>
      <trkpt lat="45.58003" lon="6.65251">
        <ele>1418.54</ele>
        <time>2022-02-13T12:02:17.999Z</time>
      </trkpt>
      <trkpt lat="45.57983" lon="6.65252">
        <ele>1416.29</ele>
        <time>2022-02-13T12:02:20.999Z</time>
      </trkpt>
      <trkpt lat="45.57961" lon="6.65252">
        <ele>1413.36</ele>
        <time>2022-02-13T12:02:23.999Z</time>
      </trkpt>
      <trkpt lat="45.57941" lon="6.65252">
        <ele>1411.63</ele>
        <time>2022-02-13T12:02:26.999Z</time>
      </trkpt>
      <trkpt lat="45.57919" lon="6.6525">
        <ele>1409.02</ele>
        <time>2022-02-13T12:02:29.999Z</time>
      </trkpt>
      <trkpt lat="45.579" lon="6.65246">
        <ele>1406.28</ele>
        <time>2022-02-13T12:02:32.999Z</time>
      </trkpt>
      <trkpt lat="45.57881" lon="6.6524">
        <ele>1404.25</ele>
        <time>2022-02-13T12:02:35.999Z</time>
      </trkpt>
      <trkpt lat="45.57861" lon="6.65231">
        <ele>1403.16</ele>
        <time>2022-02-13T12:02:39.999Z</time>
      </trkpt>
      <trkpt lat="45.57843" lon="6.65223">
        <ele>1401.48</ele>
        <time>2022-02-13T12:03:26.999Z</time>
      </trkpt>
      <trkpt lat="45.57824" lon="6.65222">
        <ele>1399.94</ele>
        <time>2022-02-13T12:03:46.999Z</time>
      </trkpt>
    </trkseg>
  </trk>
</gpx>